<?xml version="1.0" encoding="UTF-8" standalone="no" ?>
<gpx xmlns="http://www.topografix.com/GPX/1/1" xmlns:xsi="http://www.w3.org/2001/XMLSchema-instance" xsi:schemaLocation="http://www.topografix.com/GPX/1/1 http://www.topografix.com/GPX/1/1/gpx.xsd" version="1.1" creator="VisuGPX - https://www.visugpx.com">
  <metadata>
    <name>Tour de l'ile d'yeu 2</name>
    <desc><![CDATA[fin du dem itour de l'ile en passant par le phare des corbeaux .Passage des plages de la côte nord est aux rochers de la face atlantique.Paysages variés.]]></desc>
  </metadata>
  <trk>
    <name><![CDATA[IPE SUD-16 16:27:28]]></name>
    <trkseg>
      <trkpt lat="46.72213" lon="-2.34331">
        <ele>-4.19</ele>
        <time>2016-07-09T06:58:19Z</time>
      </trkpt>
      <trkpt lat="46.72204" lon="-2.34362">
        <ele>6.87</ele>
        <time>2016-07-09T06:58:49Z</time>
      </trkpt>
      <trkpt lat="46.72228" lon="-2.34395">
        <ele>9.75</ele>
        <time>2016-07-09T06:59:19Z</time>
      </trkpt>
      <trkpt lat="46.72253" lon="-2.34431">
        <ele>11.19</ele>
        <time>2016-07-09T06:59:49Z</time>
      </trkpt>
      <trkpt lat="46.72283" lon="-2.34442">
        <ele>11.19</ele>
        <time>2016-07-09T07:00:19Z</time>
      </trkpt>
      <trkpt lat="46.72313" lon="-2.34463">
        <ele>10.23</ele>
        <time>2016-07-09T07:00:49Z</time>
      </trkpt>
      <trkpt lat="46.72345" lon="-2.34465">
        <ele>8.31</ele>
        <time>2016-07-09T07:01:19Z</time>
      </trkpt>
      <trkpt lat="46.72384" lon="-2.34458">
        <ele>7.83</ele>
        <time>2016-07-09T07:01:49Z</time>
      </trkpt>
      <trkpt lat="46.72414" lon="-2.34477">
        <ele>7.83</ele>
        <time>2016-07-09T07:02:19Z</time>
      </trkpt>
      <trkpt lat="46.72418" lon="-2.34501">
        <ele>7.83</ele>
        <time>2016-07-09T07:02:49Z</time>
      </trkpt>
      <trkpt lat="46.72421" lon="-2.34536">
        <ele>7.83</ele>
        <time>2016-07-09T07:03:19Z</time>
      </trkpt>
      <trkpt lat="46.72425" lon="-2.3454">
        <ele>8.31</ele>
        <time>2016-07-09T07:03:49Z</time>
      </trkpt>
      <trkpt lat="46.7244" lon="-2.34539">
        <ele>7.35</ele>
        <time>2016-07-09T07:04:19Z</time>
      </trkpt>
      <trkpt lat="46.72438" lon="-2.34534">
        <ele>7.83</ele>
        <time>2016-07-09T07:04:49Z</time>
      </trkpt>
      <trkpt lat="46.72438" lon="-2.34533">
        <ele>7.83</ele>
        <time>2016-07-09T07:05:19Z</time>
      </trkpt>
      <trkpt lat="46.72437" lon="-2.34531">
        <ele>8.31</ele>
        <time>2016-07-09T07:05:49Z</time>
      </trkpt>
      <trkpt lat="46.72435" lon="-2.34529">
        <ele>8.79</ele>
        <time>2016-07-09T07:06:19Z</time>
      </trkpt>
      <trkpt lat="46.72436" lon="-2.34532">
        <ele>9.75</ele>
        <time>2016-07-09T07:06:49Z</time>
      </trkpt>
      <trkpt lat="46.72439" lon="-2.3453">
        <ele>6.87</ele>
        <time>2016-07-09T07:07:19Z</time>
      </trkpt>
      <trkpt lat="46.7243" lon="-2.34532">
        <ele>10.71</ele>
        <time>2016-07-09T07:07:49Z</time>
      </trkpt>
      <trkpt lat="46.72433" lon="-2.34538">
        <ele>10.23</ele>
        <time>2016-07-09T07:08:19Z</time>
      </trkpt>
      <trkpt lat="46.72429" lon="-2.3454">
        <ele>10.23</ele>
        <time>2016-07-09T07:08:49Z</time>
      </trkpt>
      <trkpt lat="46.72431" lon="-2.34542">
        <ele>12.15</ele>
        <time>2016-07-09T07:09:19Z</time>
      </trkpt>
      <trkpt lat="46.72433" lon="-2.34539">
        <ele>12.15</ele>
        <time>2016-07-09T07:09:49Z</time>
      </trkpt>
      <trkpt lat="46.72424" lon="-2.34525">
        <ele>11.67</ele>
        <time>2016-07-09T07:10:19Z</time>
      </trkpt>
      <trkpt lat="46.72418" lon="-2.34481">
        <ele>11.67</ele>
        <time>2016-07-09T07:10:49Z</time>
      </trkpt>
      <trkpt lat="46.72409" lon="-2.34435">
        <ele>12.15</ele>
        <time>2016-07-09T07:11:19Z</time>
      </trkpt>
      <trkpt lat="46.7239" lon="-2.34395">
        <ele>11.19</ele>
        <time>2016-07-09T07:11:49Z</time>
      </trkpt>
      <trkpt lat="46.72364" lon="-2.34367">
        <ele>11.19</ele>
        <time>2016-07-09T07:12:19Z</time>
      </trkpt>
      <trkpt lat="46.72339" lon="-2.34319">
        <ele>10.71</ele>
        <time>2016-07-09T07:12:49Z</time>
      </trkpt>
      <trkpt lat="46.72314" lon="-2.34281">
        <ele>10.71</ele>
        <time>2016-07-09T07:13:19Z</time>
      </trkpt>
      <trkpt lat="46.72288" lon="-2.34274">
        <ele>10.23</ele>
        <time>2016-07-09T07:13:49Z</time>
      </trkpt>
      <trkpt lat="46.72255" lon="-2.34252">
        <ele>10.71</ele>
        <time>2016-07-09T07:14:19Z</time>
      </trkpt>
      <trkpt lat="46.72219" lon="-2.34226">
        <ele>9.75</ele>
        <time>2016-07-09T07:14:49Z</time>
      </trkpt>
      <trkpt lat="46.72195" lon="-2.34183">
        <ele>9.27</ele>
        <time>2016-07-09T07:15:19Z</time>
      </trkpt>
      <trkpt lat="46.72176" lon="-2.34136">
        <ele>9.75</ele>
        <time>2016-07-09T07:15:49Z</time>
      </trkpt>
      <trkpt lat="46.72146" lon="-2.34099">
        <ele>9.27</ele>
        <time>2016-07-09T07:16:19Z</time>
      </trkpt>
      <trkpt lat="46.72109" lon="-2.34079">
        <ele>8.31</ele>
        <time>2016-07-09T07:16:49Z</time>
      </trkpt>
      <trkpt lat="46.72072" lon="-2.34078">
        <ele>7.83</ele>
        <time>2016-07-09T07:17:19Z</time>
      </trkpt>
      <trkpt lat="46.72062" lon="-2.34089">
        <ele>7.35</ele>
        <time>2016-07-09T07:17:49Z</time>
      </trkpt>
      <trkpt lat="46.72045" lon="-2.34074">
        <ele>5.91</ele>
        <time>2016-07-09T07:18:19Z</time>
      </trkpt>
      <trkpt lat="46.72016" lon="-2.34044">
        <ele>5.91</ele>
        <time>2016-07-09T07:18:49Z</time>
      </trkpt>
      <trkpt lat="46.71996" lon="-2.34002">
        <ele>5.42</ele>
        <time>2016-07-09T07:19:19Z</time>
      </trkpt>
      <trkpt lat="46.71967" lon="-2.33973">
        <ele>5.42</ele>
        <time>2016-07-09T07:19:49Z</time>
      </trkpt>
      <trkpt lat="46.71939" lon="-2.33973">
        <ele>8.31</ele>
        <time>2016-07-09T07:20:19Z</time>
      </trkpt>
      <trkpt lat="46.71913" lon="-2.33963">
        <ele>9.27</ele>
        <time>2016-07-09T07:20:49Z</time>
      </trkpt>
      <trkpt lat="46.71907" lon="-2.33953">
        <ele>9.27</ele>
        <time>2016-07-09T07:21:19Z</time>
      </trkpt>
      <trkpt lat="46.71909" lon="-2.33952">
        <ele>9.75</ele>
        <time>2016-07-09T07:21:49Z</time>
      </trkpt>
      <trkpt lat="46.71909" lon="-2.33951">
        <ele>9.27</ele>
        <time>2016-07-09T07:22:19Z</time>
      </trkpt>
      <trkpt lat="46.71898" lon="-2.33914">
        <ele>9.75</ele>
        <time>2016-07-09T07:22:49Z</time>
      </trkpt>
      <trkpt lat="46.7189" lon="-2.33861">
        <ele>9.75</ele>
        <time>2016-07-09T07:23:19Z</time>
      </trkpt>
      <trkpt lat="46.71882" lon="-2.3381">
        <ele>10.71</ele>
        <time>2016-07-09T07:23:49Z</time>
      </trkpt>
      <trkpt lat="46.71873" lon="-2.33763">
        <ele>11.19</ele>
        <time>2016-07-09T07:24:19Z</time>
      </trkpt>
      <trkpt lat="46.71869" lon="-2.33715">
        <ele>9.75</ele>
        <time>2016-07-09T07:24:49Z</time>
      </trkpt>
      <trkpt lat="46.71866" lon="-2.33663">
        <ele>7.83</ele>
        <time>2016-07-09T07:25:19Z</time>
      </trkpt>
      <trkpt lat="46.71883" lon="-2.33634">
        <ele>7.83</ele>
        <time>2016-07-09T07:25:49Z</time>
      </trkpt>
      <trkpt lat="46.71908" lon="-2.33612">
        <ele>5.91</ele>
        <time>2016-07-09T07:26:19Z</time>
      </trkpt>
      <trkpt lat="46.7192" lon="-2.33577">
        <ele>4.94</ele>
        <time>2016-07-09T07:26:49Z</time>
      </trkpt>
      <trkpt lat="46.7192" lon="-2.3353">
        <ele>4.94</ele>
        <time>2016-07-09T07:27:19Z</time>
      </trkpt>
      <trkpt lat="46.71919" lon="-2.33483">
        <ele>4.94</ele>
        <time>2016-07-09T07:27:49Z</time>
      </trkpt>
      <trkpt lat="46.71921" lon="-2.33442">
        <ele>4.94</ele>
        <time>2016-07-09T07:28:19Z</time>
      </trkpt>
      <trkpt lat="46.71921" lon="-2.3341">
        <ele>5.42</ele>
        <time>2016-07-09T07:28:49Z</time>
      </trkpt>
      <trkpt lat="46.71927" lon="-2.33374">
        <ele>4.94</ele>
        <time>2016-07-09T07:29:19Z</time>
      </trkpt>
      <trkpt lat="46.71934" lon="-2.33322">
        <ele>5.42</ele>
        <time>2016-07-09T07:29:49Z</time>
      </trkpt>
      <trkpt lat="46.71943" lon="-2.33273">
        <ele>5.42</ele>
        <time>2016-07-09T07:30:19Z</time>
      </trkpt>
      <trkpt lat="46.71954" lon="-2.33225">
        <ele>4.94</ele>
        <time>2016-07-09T07:30:49Z</time>
      </trkpt>
      <trkpt lat="46.71968" lon="-2.33179">
        <ele>5.42</ele>
        <time>2016-07-09T07:31:19Z</time>
      </trkpt>
      <trkpt lat="46.71979" lon="-2.33153">
        <ele>4.94</ele>
        <time>2016-07-09T07:31:49Z</time>
      </trkpt>
      <trkpt lat="46.71989" lon="-2.33128">
        <ele>4.94</ele>
        <time>2016-07-09T07:32:19Z</time>
      </trkpt>
      <trkpt lat="46.72003" lon="-2.33085">
        <ele>5.42</ele>
        <time>2016-07-09T07:32:49Z</time>
      </trkpt>
      <trkpt lat="46.7202" lon="-2.33049">
        <ele>5.91</ele>
        <time>2016-07-09T07:33:19Z</time>
      </trkpt>
      <trkpt lat="46.72033" lon="-2.33016">
        <ele>5.42</ele>
        <time>2016-07-09T07:33:49Z</time>
      </trkpt>
      <trkpt lat="46.72053" lon="-2.32971">
        <ele>5.42</ele>
        <time>2016-07-09T07:34:19Z</time>
      </trkpt>
      <trkpt lat="46.72063" lon="-2.32925">
        <ele>5.42</ele>
        <time>2016-07-09T07:34:49Z</time>
      </trkpt>
      <trkpt lat="46.72074" lon="-2.32878">
        <ele>5.42</ele>
        <time>2016-07-09T07:35:19Z</time>
      </trkpt>
      <trkpt lat="46.72082" lon="-2.32834">
        <ele>5.42</ele>
        <time>2016-07-09T07:35:49Z</time>
      </trkpt>
      <trkpt lat="46.72081" lon="-2.32808">
        <ele>5.42</ele>
        <time>2016-07-09T07:36:19Z</time>
      </trkpt>
      <trkpt lat="46.72082" lon="-2.32784">
        <ele>4.94</ele>
        <time>2016-07-09T07:36:49Z</time>
      </trkpt>
      <trkpt lat="46.72075" lon="-2.32763">
        <ele>5.42</ele>
        <time>2016-07-09T07:37:19Z</time>
      </trkpt>
      <trkpt lat="46.72078" lon="-2.32732">
        <ele>5.42</ele>
        <time>2016-07-09T07:37:49Z</time>
      </trkpt>
      <trkpt lat="46.72074" lon="-2.3268">
        <ele>5.42</ele>
        <time>2016-07-09T07:38:19Z</time>
      </trkpt>
      <trkpt lat="46.72071" lon="-2.32633">
        <ele>5.42</ele>
        <time>2016-07-09T07:38:49Z</time>
      </trkpt>
      <trkpt lat="46.72058" lon="-2.32593">
        <ele>5.91</ele>
        <time>2016-07-09T07:39:19Z</time>
      </trkpt>
      <trkpt lat="46.72049" lon="-2.32581">
        <ele>7.83</ele>
        <time>2016-07-09T07:39:49Z</time>
      </trkpt>
      <trkpt lat="46.72024" lon="-2.32574">
        <ele>8.31</ele>
        <time>2016-07-09T07:40:19Z</time>
      </trkpt>
      <trkpt lat="46.72" lon="-2.32553">
        <ele>8.79</ele>
        <time>2016-07-09T07:40:49Z</time>
      </trkpt>
      <trkpt lat="46.71986" lon="-2.32516">
        <ele>8.31</ele>
        <time>2016-07-09T07:41:19Z</time>
      </trkpt>
      <trkpt lat="46.71966" lon="-2.32475">
        <ele>9.27</ele>
        <time>2016-07-09T07:41:49Z</time>
      </trkpt>
      <trkpt lat="46.7196" lon="-2.32457">
        <ele>8.31</ele>
        <time>2016-07-09T07:42:19Z</time>
      </trkpt>
      <trkpt lat="46.71933" lon="-2.32423">
        <ele>9.27</ele>
        <time>2016-07-09T07:42:49Z</time>
      </trkpt>
      <trkpt lat="46.71902" lon="-2.32415">
        <ele>9.75</ele>
        <time>2016-07-09T07:43:19Z</time>
      </trkpt>
      <trkpt lat="46.71883" lon="-2.32376">
        <ele>10.23</ele>
        <time>2016-07-09T07:43:49Z</time>
      </trkpt>
      <trkpt lat="46.71874" lon="-2.32348">
        <ele>10.71</ele>
        <time>2016-07-09T07:44:19Z</time>
      </trkpt>
      <trkpt lat="46.71879" lon="-2.32306">
        <ele>10.71</ele>
        <time>2016-07-09T07:44:49Z</time>
      </trkpt>
      <trkpt lat="46.71867" lon="-2.32262">
        <ele>10.23</ele>
        <time>2016-07-09T07:45:19Z</time>
      </trkpt>
      <trkpt lat="46.71863" lon="-2.32211">
        <ele>10.71</ele>
        <time>2016-07-09T07:45:49Z</time>
      </trkpt>
      <trkpt lat="46.71858" lon="-2.32162">
        <ele>10.71</ele>
        <time>2016-07-09T07:46:19Z</time>
      </trkpt>
      <trkpt lat="46.71849" lon="-2.32114">
        <ele>11.19</ele>
        <time>2016-07-09T07:46:49Z</time>
      </trkpt>
      <trkpt lat="46.71848" lon="-2.32067">
        <ele>10.23</ele>
        <time>2016-07-09T07:47:19Z</time>
      </trkpt>
      <trkpt lat="46.71854" lon="-2.32016">
        <ele>10.23</ele>
        <time>2016-07-09T07:47:49Z</time>
      </trkpt>
      <trkpt lat="46.71876" lon="-2.31983">
        <ele>10.71</ele>
        <time>2016-07-09T07:48:19Z</time>
      </trkpt>
      <trkpt lat="46.71912" lon="-2.31976">
        <ele>9.27</ele>
        <time>2016-07-09T07:48:49Z</time>
      </trkpt>
      <trkpt lat="46.71946" lon="-2.31973">
        <ele>8.79</ele>
        <time>2016-07-09T07:49:19Z</time>
      </trkpt>
      <trkpt lat="46.71975" lon="-2.31975">
        <ele>8.79</ele>
        <time>2016-07-09T07:49:49Z</time>
      </trkpt>
      <trkpt lat="46.71989" lon="-2.31975">
        <ele>8.31</ele>
        <time>2016-07-09T07:50:19Z</time>
      </trkpt>
      <trkpt lat="46.72" lon="-2.31964">
        <ele>6.39</ele>
        <time>2016-07-09T07:50:49Z</time>
      </trkpt>
      <trkpt lat="46.72001" lon="-2.31967">
        <ele>6.39</ele>
        <time>2016-07-09T07:51:19Z</time>
      </trkpt>
      <trkpt lat="46.72001" lon="-2.31968">
        <ele>6.39</ele>
        <time>2016-07-09T07:51:49Z</time>
      </trkpt>
      <trkpt lat="46.71996" lon="-2.31966">
        <ele>6.87</ele>
        <time>2016-07-09T07:52:19Z</time>
      </trkpt>
      <trkpt lat="46.71997" lon="-2.31965">
        <ele>6.87</ele>
        <time>2016-07-09T07:52:49Z</time>
      </trkpt>
      <trkpt lat="46.71995" lon="-2.31963">
        <ele>7.35</ele>
        <time>2016-07-09T07:53:19Z</time>
      </trkpt>
      <trkpt lat="46.71996" lon="-2.31964">
        <ele>6.87</ele>
        <time>2016-07-09T07:53:49Z</time>
      </trkpt>
      <trkpt lat="46.71998" lon="-2.31969">
        <ele>7.35</ele>
        <time>2016-07-09T07:54:19Z</time>
      </trkpt>
      <trkpt lat="46.72005" lon="-2.31933">
        <ele>5.42</ele>
        <time>2016-07-09T07:54:49Z</time>
      </trkpt>
      <trkpt lat="46.72003" lon="-2.3189">
        <ele>4.94</ele>
        <time>2016-07-09T07:55:19Z</time>
      </trkpt>
      <trkpt lat="46.72002" lon="-2.31854">
        <ele>5.42</ele>
        <time>2016-07-09T07:55:49Z</time>
      </trkpt>
      <trkpt lat="46.71996" lon="-2.31824">
        <ele>5.91</ele>
        <time>2016-07-09T07:56:19Z</time>
      </trkpt>
      <trkpt lat="46.71992" lon="-2.31799">
        <ele>6.87</ele>
        <time>2016-07-09T07:56:49Z</time>
      </trkpt>
      <trkpt lat="46.71987" lon="-2.31795">
        <ele>6.39</ele>
        <time>2016-07-09T07:57:19Z</time>
      </trkpt>
      <trkpt lat="46.71979" lon="-2.31794">
        <ele>5.42</ele>
        <time>2016-07-09T07:57:49Z</time>
      </trkpt>
      <trkpt lat="46.71958" lon="-2.31782">
        <ele>5.42</ele>
        <time>2016-07-09T07:58:19Z</time>
      </trkpt>
      <trkpt lat="46.71945" lon="-2.31781">
        <ele>5.42</ele>
        <time>2016-07-09T07:58:49Z</time>
      </trkpt>
      <trkpt lat="46.71926" lon="-2.31792">
        <ele>5.42</ele>
        <time>2016-07-09T07:59:19Z</time>
      </trkpt>
      <trkpt lat="46.71915" lon="-2.31824">
        <ele>6.39</ele>
        <time>2016-07-09T07:59:49Z</time>
      </trkpt>
      <trkpt lat="46.71888" lon="-2.31818">
        <ele>4.94</ele>
        <time>2016-07-09T08:00:19Z</time>
      </trkpt>
      <trkpt lat="46.71862" lon="-2.31811">
        <ele>4.46</ele>
        <time>2016-07-09T08:00:49Z</time>
      </trkpt>
      <trkpt lat="46.71854" lon="-2.3184">
        <ele>7.35</ele>
        <time>2016-07-09T08:01:19Z</time>
      </trkpt>
      <trkpt lat="46.71852" lon="-2.31851">
        <ele>8.31</ele>
        <time>2016-07-09T08:01:49Z</time>
      </trkpt>
      <trkpt lat="46.71836" lon="-2.31864">
        <ele>8.79</ele>
        <time>2016-07-09T08:02:19Z</time>
      </trkpt>
      <trkpt lat="46.71802" lon="-2.31877">
        <ele>7.83</ele>
        <time>2016-07-09T08:02:49Z</time>
      </trkpt>
      <trkpt lat="46.71772" lon="-2.31846">
        <ele>6.87</ele>
        <time>2016-07-09T08:03:19Z</time>
      </trkpt>
      <trkpt lat="46.71745" lon="-2.31812">
        <ele>6.39</ele>
        <time>2016-07-09T08:03:49Z</time>
      </trkpt>
      <trkpt lat="46.71739" lon="-2.31764">
        <ele>8.79</ele>
        <time>2016-07-09T08:04:19Z</time>
      </trkpt>
      <trkpt lat="46.71719" lon="-2.31741">
        <ele>7.83</ele>
        <time>2016-07-09T08:04:49Z</time>
      </trkpt>
      <trkpt lat="46.71697" lon="-2.31701">
        <ele>7.35</ele>
        <time>2016-07-09T08:05:19Z</time>
      </trkpt>
      <trkpt lat="46.71679" lon="-2.31673">
        <ele>7.35</ele>
        <time>2016-07-09T08:05:49Z</time>
      </trkpt>
      <trkpt lat="46.71655" lon="-2.31628">
        <ele>7.35</ele>
        <time>2016-07-09T08:06:19Z</time>
      </trkpt>
      <trkpt lat="46.7163" lon="-2.31592">
        <ele>7.35</ele>
        <time>2016-07-09T08:06:49Z</time>
      </trkpt>
      <trkpt lat="46.71604" lon="-2.31553">
        <ele>6.87</ele>
        <time>2016-07-09T08:07:19Z</time>
      </trkpt>
      <trkpt lat="46.71577" lon="-2.31508">
        <ele>6.39</ele>
        <time>2016-07-09T08:07:49Z</time>
      </trkpt>
      <trkpt lat="46.71557" lon="-2.31469">
        <ele>5.91</ele>
        <time>2016-07-09T08:08:19Z</time>
      </trkpt>
      <trkpt lat="46.71536" lon="-2.3144">
        <ele>7.35</ele>
        <time>2016-07-09T08:08:49Z</time>
      </trkpt>
      <trkpt lat="46.71526" lon="-2.3143">
        <ele>6.87</ele>
        <time>2016-07-09T08:09:19Z</time>
      </trkpt>
      <trkpt lat="46.71499" lon="-2.3141">
        <ele>6.39</ele>
        <time>2016-07-09T08:09:49Z</time>
      </trkpt>
      <trkpt lat="46.71466" lon="-2.31406">
        <ele>5.42</ele>
        <time>2016-07-09T08:10:19Z</time>
      </trkpt>
      <trkpt lat="46.71437" lon="-2.31402">
        <ele>5.42</ele>
        <time>2016-07-09T08:10:49Z</time>
      </trkpt>
      <trkpt lat="46.71431" lon="-2.31398">
        <ele>5.42</ele>
        <time>2016-07-09T08:11:19Z</time>
      </trkpt>
      <trkpt lat="46.7143" lon="-2.31355">
        <ele>5.42</ele>
        <time>2016-07-09T08:11:49Z</time>
      </trkpt>
      <trkpt lat="46.71425" lon="-2.31304">
        <ele>3.98</ele>
        <time>2016-07-09T08:12:19Z</time>
      </trkpt>
      <trkpt lat="46.71428" lon="-2.3129">
        <ele>3.98</ele>
        <time>2016-07-09T08:12:49Z</time>
      </trkpt>
      <trkpt lat="46.7142" lon="-2.31258">
        <ele>3.5</ele>
        <time>2016-07-09T08:13:19Z</time>
      </trkpt>
      <trkpt lat="46.71401" lon="-2.31259">
        <ele>4.46</ele>
        <time>2016-07-09T08:13:49Z</time>
      </trkpt>
      <trkpt lat="46.71394" lon="-2.31249">
        <ele>3.98</ele>
        <time>2016-07-09T08:14:19Z</time>
      </trkpt>
      <trkpt lat="46.71362" lon="-2.31254">
        <ele>4.46</ele>
        <time>2016-07-09T08:14:49Z</time>
      </trkpt>
      <trkpt lat="46.71326" lon="-2.31245">
        <ele>3.98</ele>
        <time>2016-07-09T08:15:19Z</time>
      </trkpt>
      <trkpt lat="46.71302" lon="-2.31247">
        <ele>3.98</ele>
        <time>2016-07-09T08:15:49Z</time>
      </trkpt>
      <trkpt lat="46.71271" lon="-2.31237">
        <ele>3.5</ele>
        <time>2016-07-09T08:16:19Z</time>
      </trkpt>
      <trkpt lat="46.7124" lon="-2.31225">
        <ele>3.02</ele>
        <time>2016-07-09T08:16:49Z</time>
      </trkpt>
      <trkpt lat="46.71214" lon="-2.31209">
        <ele>3.98</ele>
        <time>2016-07-09T08:17:19Z</time>
      </trkpt>
      <trkpt lat="46.71183" lon="-2.31186">
        <ele>3.02</ele>
        <time>2016-07-09T08:17:49Z</time>
      </trkpt>
      <trkpt lat="46.71158" lon="-2.31147">
        <ele>2.06</ele>
        <time>2016-07-09T08:18:19Z</time>
      </trkpt>
      <trkpt lat="46.71131" lon="-2.31117">
        <ele>2.54</ele>
        <time>2016-07-09T08:18:49Z</time>
      </trkpt>
      <trkpt lat="46.71095" lon="-2.31115">
        <ele>2.54</ele>
        <time>2016-07-09T08:19:19Z</time>
      </trkpt>
      <trkpt lat="46.71061" lon="-2.31107">
        <ele>3.02</ele>
        <time>2016-07-09T08:19:49Z</time>
      </trkpt>
      <trkpt lat="46.7104" lon="-2.31077">
        <ele>3.02</ele>
        <time>2016-07-09T08:20:19Z</time>
      </trkpt>
      <trkpt lat="46.71004" lon="-2.31085">
        <ele>3.02</ele>
        <time>2016-07-09T08:20:49Z</time>
      </trkpt>
      <trkpt lat="46.70969" lon="-2.31094">
        <ele>2.54</ele>
        <time>2016-07-09T08:21:19Z</time>
      </trkpt>
      <trkpt lat="46.70939" lon="-2.31109">
        <ele>2.54</ele>
        <time>2016-07-09T08:21:49Z</time>
      </trkpt>
      <trkpt lat="46.70905" lon="-2.31124">
        <ele>2.06</ele>
        <time>2016-07-09T08:22:19Z</time>
      </trkpt>
      <trkpt lat="46.70873" lon="-2.3113">
        <ele>2.06</ele>
        <time>2016-07-09T08:22:49Z</time>
      </trkpt>
      <trkpt lat="46.70869" lon="-2.3113">
        <ele>2.06</ele>
        <time>2016-07-09T08:23:19Z</time>
      </trkpt>
      <trkpt lat="46.70843" lon="-2.31126">
        <ele>2.06</ele>
        <time>2016-07-09T08:23:49Z</time>
      </trkpt>
      <trkpt lat="46.70845" lon="-2.31127">
        <ele>2.06</ele>
        <time>2016-07-09T08:24:19Z</time>
      </trkpt>
      <trkpt lat="46.70844" lon="-2.3111">
        <ele>2.54</ele>
        <time>2016-07-09T08:24:49Z</time>
      </trkpt>
      <trkpt lat="46.70845" lon="-2.31076">
        <ele>2.54</ele>
        <time>2016-07-09T08:25:19Z</time>
      </trkpt>
      <trkpt lat="46.70864" lon="-2.31029">
        <ele>3.98</ele>
        <time>2016-07-09T08:25:49Z</time>
      </trkpt>
      <trkpt lat="46.70877" lon="-2.30994">
        <ele>4.94</ele>
        <time>2016-07-09T08:26:19Z</time>
      </trkpt>
      <trkpt lat="46.70898" lon="-2.30955">
        <ele>5.91</ele>
        <time>2016-07-09T08:26:49Z</time>
      </trkpt>
      <trkpt lat="46.70893" lon="-2.30909">
        <ele>6.87</ele>
        <time>2016-07-09T08:27:19Z</time>
      </trkpt>
      <trkpt lat="46.70876" lon="-2.30898">
        <ele>6.39</ele>
        <time>2016-07-09T08:27:49Z</time>
      </trkpt>
      <trkpt lat="46.70887" lon="-2.30891">
        <ele>7.83</ele>
        <time>2016-07-09T08:28:19Z</time>
      </trkpt>
      <trkpt lat="46.70892" lon="-2.30886">
        <ele>7.83</ele>
        <time>2016-07-09T08:28:49Z</time>
      </trkpt>
      <trkpt lat="46.70896" lon="-2.30885">
        <ele>7.83</ele>
        <time>2016-07-09T08:29:19Z</time>
      </trkpt>
      <trkpt lat="46.70893" lon="-2.30893">
        <ele>8.31</ele>
        <time>2016-07-09T08:29:49Z</time>
      </trkpt>
      <trkpt lat="46.70891" lon="-2.30894">
        <ele>8.79</ele>
        <time>2016-07-09T08:30:19Z</time>
      </trkpt>
      <trkpt lat="46.70887" lon="-2.30894">
        <ele>8.31</ele>
        <time>2016-07-09T08:30:49Z</time>
      </trkpt>
      <trkpt lat="46.70889" lon="-2.30889">
        <ele>8.79</ele>
        <time>2016-07-09T08:31:19Z</time>
      </trkpt>
      <trkpt lat="46.7089" lon="-2.30888">
        <ele>8.79</ele>
        <time>2016-07-09T08:31:49Z</time>
      </trkpt>
      <trkpt lat="46.7089" lon="-2.30887">
        <ele>8.31</ele>
        <time>2016-07-09T08:32:19Z</time>
      </trkpt>
      <trkpt lat="46.70891" lon="-2.30891">
        <ele>8.31</ele>
        <time>2016-07-09T08:32:49Z</time>
      </trkpt>
      <trkpt lat="46.7089" lon="-2.30895">
        <ele>7.83</ele>
        <time>2016-07-09T08:33:19Z</time>
      </trkpt>
      <trkpt lat="46.70889" lon="-2.30893">
        <ele>8.31</ele>
        <time>2016-07-09T08:33:49Z</time>
      </trkpt>
      <trkpt lat="46.7089" lon="-2.30892">
        <ele>8.31</ele>
        <time>2016-07-09T08:34:19Z</time>
      </trkpt>
      <trkpt lat="46.70891" lon="-2.30893">
        <ele>8.79</ele>
        <time>2016-07-09T08:34:49Z</time>
      </trkpt>
      <trkpt lat="46.70891" lon="-2.30892">
        <ele>8.31</ele>
        <time>2016-07-09T08:35:19Z</time>
      </trkpt>
      <trkpt lat="46.70886" lon="-2.30858">
        <ele>10.23</ele>
        <time>2016-07-09T08:35:49Z</time>
      </trkpt>
      <trkpt lat="46.7088" lon="-2.30823">
        <ele>8.79</ele>
        <time>2016-07-09T08:36:19Z</time>
      </trkpt>
      <trkpt lat="46.70881" lon="-2.30821">
        <ele>8.31</ele>
        <time>2016-07-09T08:36:49Z</time>
      </trkpt>
      <trkpt lat="46.7088" lon="-2.3082">
        <ele>8.79</ele>
        <time>2016-07-09T08:37:19Z</time>
      </trkpt>
      <trkpt lat="46.70879" lon="-2.30826">
        <ele>8.79</ele>
        <time>2016-07-09T08:37:49Z</time>
      </trkpt>
      <trkpt lat="46.70881" lon="-2.30828">
        <ele>8.79</ele>
        <time>2016-07-09T08:38:19Z</time>
      </trkpt>
      <trkpt lat="46.70878" lon="-2.30791">
        <ele>8.31</ele>
        <time>2016-07-09T08:38:49Z</time>
      </trkpt>
      <trkpt lat="46.7087" lon="-2.30742">
        <ele>7.35</ele>
        <time>2016-07-09T08:39:19Z</time>
      </trkpt>
      <trkpt lat="46.70866" lon="-2.30688">
        <ele>6.87</ele>
        <time>2016-07-09T08:39:49Z</time>
      </trkpt>
      <trkpt lat="46.70868" lon="-2.30635">
        <ele>7.35</ele>
        <time>2016-07-09T08:40:19Z</time>
      </trkpt>
      <trkpt lat="46.70878" lon="-2.30609">
        <ele>6.87</ele>
        <time>2016-07-09T08:40:49Z</time>
      </trkpt>
      <trkpt lat="46.70872" lon="-2.30569">
        <ele>9.27</ele>
        <time>2016-07-09T08:41:19Z</time>
      </trkpt>
      <trkpt lat="46.70871" lon="-2.30528">
        <ele>8.31</ele>
        <time>2016-07-09T08:41:49Z</time>
      </trkpt>
      <trkpt lat="46.70884" lon="-2.305">
        <ele>8.31</ele>
        <time>2016-07-09T08:42:19Z</time>
      </trkpt>
      <trkpt lat="46.70867" lon="-2.30476">
        <ele>7.83</ele>
        <time>2016-07-09T08:42:49Z</time>
      </trkpt>
      <trkpt lat="46.70839" lon="-2.3049">
        <ele>7.83</ele>
        <time>2016-07-09T08:43:19Z</time>
      </trkpt>
      <trkpt lat="46.70806" lon="-2.30482">
        <ele>6.87</ele>
        <time>2016-07-09T08:43:49Z</time>
      </trkpt>
      <trkpt lat="46.70781" lon="-2.30449">
        <ele>5.42</ele>
        <time>2016-07-09T08:44:19Z</time>
      </trkpt>
      <trkpt lat="46.70783" lon="-2.30402">
        <ele>4.94</ele>
        <time>2016-07-09T08:44:49Z</time>
      </trkpt>
      <trkpt lat="46.70783" lon="-2.30355">
        <ele>4.94</ele>
        <time>2016-07-09T08:45:19Z</time>
      </trkpt>
      <trkpt lat="46.70785" lon="-2.30305">
        <ele>4.46</ele>
        <time>2016-07-09T08:45:49Z</time>
      </trkpt>
      <trkpt lat="46.70786" lon="-2.30258">
        <ele>4.94</ele>
        <time>2016-07-09T08:46:19Z</time>
      </trkpt>
      <trkpt lat="46.70775" lon="-2.30214">
        <ele>3.98</ele>
        <time>2016-07-09T08:46:49Z</time>
      </trkpt>
      <trkpt lat="46.70752" lon="-2.30188">
        <ele>3.5</ele>
        <time>2016-07-09T08:47:19Z</time>
      </trkpt>
      <trkpt lat="46.70742" lon="-2.30159">
        <ele>5.42</ele>
        <time>2016-07-09T08:47:49Z</time>
      </trkpt>
      <trkpt lat="46.70738" lon="-2.30145">
        <ele>4.94</ele>
        <time>2016-07-09T08:48:19Z</time>
      </trkpt>
      <trkpt lat="46.70739" lon="-2.30142">
        <ele>5.42</ele>
        <time>2016-07-09T08:48:49Z</time>
      </trkpt>
      <trkpt lat="46.7074" lon="-2.30144">
        <ele>5.91</ele>
        <time>2016-07-09T08:49:19Z</time>
      </trkpt>
      <trkpt lat="46.70743" lon="-2.30154">
        <ele>5.42</ele>
        <time>2016-07-09T08:49:49Z</time>
      </trkpt>
      <trkpt lat="46.7074" lon="-2.30147">
        <ele>5.42</ele>
        <time>2016-07-09T08:50:19Z</time>
      </trkpt>
      <trkpt lat="46.7072" lon="-2.30122">
        <ele>6.87</ele>
        <time>2016-07-09T08:50:49Z</time>
      </trkpt>
      <trkpt lat="46.70694" lon="-2.30098">
        <ele>6.87</ele>
        <time>2016-07-09T08:51:19Z</time>
      </trkpt>
      <trkpt lat="46.70663" lon="-2.30081">
        <ele>5.42</ele>
        <time>2016-07-09T08:51:49Z</time>
      </trkpt>
      <trkpt lat="46.70651" lon="-2.30068">
        <ele>5.42</ele>
        <time>2016-07-09T08:52:19Z</time>
      </trkpt>
      <trkpt lat="46.70667" lon="-2.30039">
        <ele>5.42</ele>
        <time>2016-07-09T08:52:49Z</time>
      </trkpt>
      <trkpt lat="46.70649" lon="-2.30067">
        <ele>5.91</ele>
        <time>2016-07-09T08:53:19Z</time>
      </trkpt>
      <trkpt lat="46.70631" lon="-2.3007">
        <ele>5.42</ele>
        <time>2016-07-09T08:53:49Z</time>
      </trkpt>
      <trkpt lat="46.70635" lon="-2.30071">
        <ele>4.94</ele>
        <time>2016-07-09T08:54:19Z</time>
      </trkpt>
      <trkpt lat="46.70616" lon="-2.30057">
        <ele>4.46</ele>
        <time>2016-07-09T08:54:49Z</time>
      </trkpt>
      <trkpt lat="46.70596" lon="-2.30033">
        <ele>4.94</ele>
        <time>2016-07-09T08:55:19Z</time>
      </trkpt>
      <trkpt lat="46.70578" lon="-2.30018">
        <ele>4.94</ele>
        <time>2016-07-09T08:55:49Z</time>
      </trkpt>
      <trkpt lat="46.70564" lon="-2.29975">
        <ele>5.42</ele>
        <time>2016-07-09T08:56:19Z</time>
      </trkpt>
      <trkpt lat="46.70546" lon="-2.29928">
        <ele>4.46</ele>
        <time>2016-07-09T08:56:49Z</time>
      </trkpt>
      <trkpt lat="46.70517" lon="-2.29904">
        <ele>3.98</ele>
        <time>2016-07-09T08:57:19Z</time>
      </trkpt>
      <trkpt lat="46.70496" lon="-2.29878">
        <ele>4.94</ele>
        <time>2016-07-09T08:57:49Z</time>
      </trkpt>
      <trkpt lat="46.70482" lon="-2.29862">
        <ele>4.94</ele>
        <time>2016-07-09T08:58:19Z</time>
      </trkpt>
      <trkpt lat="46.70477" lon="-2.29823">
        <ele>3.5</ele>
        <time>2016-07-09T08:58:49Z</time>
      </trkpt>
      <trkpt lat="46.70448" lon="-2.29798">
        <ele>5.42</ele>
        <time>2016-07-09T08:59:19Z</time>
      </trkpt>
      <trkpt lat="46.70432" lon="-2.29761">
        <ele>3.98</ele>
        <time>2016-07-09T08:59:49Z</time>
      </trkpt>
      <trkpt lat="46.70403" lon="-2.29748">
        <ele>4.46</ele>
        <time>2016-07-09T09:00:19Z</time>
      </trkpt>
      <trkpt lat="46.70371" lon="-2.29729">
        <ele>4.46</ele>
        <time>2016-07-09T09:00:49Z</time>
      </trkpt>
      <trkpt lat="46.70353" lon="-2.29711">
        <ele>3.98</ele>
        <time>2016-07-09T09:01:19Z</time>
      </trkpt>
      <trkpt lat="46.70352" lon="-2.29676">
        <ele>3.98</ele>
        <time>2016-07-09T09:01:49Z</time>
      </trkpt>
      <trkpt lat="46.70328" lon="-2.2964">
        <ele>4.46</ele>
        <time>2016-07-09T09:02:19Z</time>
      </trkpt>
      <trkpt lat="46.70303" lon="-2.29613">
        <ele>6.39</ele>
        <time>2016-07-09T09:02:49Z</time>
      </trkpt>
      <trkpt lat="46.70275" lon="-2.29593">
        <ele>6.87</ele>
        <time>2016-07-09T09:03:19Z</time>
      </trkpt>
      <trkpt lat="46.70253" lon="-2.29558">
        <ele>7.35</ele>
        <time>2016-07-09T09:03:49Z</time>
      </trkpt>
      <trkpt lat="46.70229" lon="-2.29522">
        <ele>6.87</ele>
        <time>2016-07-09T09:04:19Z</time>
      </trkpt>
      <trkpt lat="46.70212" lon="-2.2949">
        <ele>7.83</ele>
        <time>2016-07-09T09:04:49Z</time>
      </trkpt>
      <trkpt lat="46.70189" lon="-2.29464">
        <ele>8.31</ele>
        <time>2016-07-09T09:05:19Z</time>
      </trkpt>
      <trkpt lat="46.70186" lon="-2.29467">
        <ele>8.79</ele>
        <time>2016-07-09T09:05:49Z</time>
      </trkpt>
      <trkpt lat="46.70186" lon="-2.2946">
        <ele>9.27</ele>
        <time>2016-07-09T09:06:19Z</time>
      </trkpt>
      <trkpt lat="46.70185" lon="-2.29462">
        <ele>8.79</ele>
        <time>2016-07-09T09:06:49Z</time>
      </trkpt>
      <trkpt lat="46.70178" lon="-2.29451">
        <ele>8.31</ele>
        <time>2016-07-09T09:07:19Z</time>
      </trkpt>
      <trkpt lat="46.70156" lon="-2.29426">
        <ele>7.83</ele>
        <time>2016-07-09T09:07:49Z</time>
      </trkpt>
      <trkpt lat="46.70133" lon="-2.29396">
        <ele>6.87</ele>
        <time>2016-07-09T09:08:19Z</time>
      </trkpt>
      <trkpt lat="46.70129" lon="-2.29403">
        <ele>7.35</ele>
        <time>2016-07-09T09:08:49Z</time>
      </trkpt>
      <trkpt lat="46.7013" lon="-2.29403">
        <ele>6.39</ele>
        <time>2016-07-09T09:09:19Z</time>
      </trkpt>
      <trkpt lat="46.70135" lon="-2.29402">
        <ele>6.87</ele>
        <time>2016-07-09T09:09:49Z</time>
      </trkpt>
      <trkpt lat="46.70133" lon="-2.29398">
        <ele>8.31</ele>
        <time>2016-07-09T09:10:19Z</time>
      </trkpt>
      <trkpt lat="46.7013" lon="-2.29394">
        <ele>7.35</ele>
        <time>2016-07-09T09:10:49Z</time>
      </trkpt>
      <trkpt lat="46.70108" lon="-2.29368">
        <ele>7.83</ele>
        <time>2016-07-09T09:11:19Z</time>
      </trkpt>
      <trkpt lat="46.70084" lon="-2.29338">
        <ele>6.87</ele>
        <time>2016-07-09T09:11:49Z</time>
      </trkpt>
      <trkpt lat="46.70063" lon="-2.29307">
        <ele>7.35</ele>
        <time>2016-07-09T09:12:19Z</time>
      </trkpt>
      <trkpt lat="46.7004" lon="-2.29277">
        <ele>7.35</ele>
        <time>2016-07-09T09:12:49Z</time>
      </trkpt>
      <trkpt lat="46.70018" lon="-2.2925">
        <ele>7.35</ele>
        <time>2016-07-09T09:13:19Z</time>
      </trkpt>
      <trkpt lat="46.69997" lon="-2.29222">
        <ele>8.31</ele>
        <time>2016-07-09T09:13:49Z</time>
      </trkpt>
      <trkpt lat="46.69972" lon="-2.29192">
        <ele>11.19</ele>
        <time>2016-07-09T09:14:19Z</time>
      </trkpt>
      <trkpt lat="46.69942" lon="-2.29163">
        <ele>9.75</ele>
        <time>2016-07-09T09:14:49Z</time>
      </trkpt>
      <trkpt lat="46.6991" lon="-2.2914">
        <ele>8.79</ele>
        <time>2016-07-09T09:15:19Z</time>
      </trkpt>
      <trkpt lat="46.6988" lon="-2.29113">
        <ele>8.31</ele>
        <time>2016-07-09T09:15:49Z</time>
      </trkpt>
      <trkpt lat="46.69856" lon="-2.29077">
        <ele>7.83</ele>
        <time>2016-07-09T09:16:19Z</time>
      </trkpt>
      <trkpt lat="46.69841" lon="-2.29067">
        <ele>8.31</ele>
        <time>2016-07-09T09:16:49Z</time>
      </trkpt>
      <trkpt lat="46.69815" lon="-2.29032">
        <ele>10.23</ele>
        <time>2016-07-09T09:17:19Z</time>
      </trkpt>
      <trkpt lat="46.69792" lon="-2.28999">
        <ele>9.75</ele>
        <time>2016-07-09T09:17:49Z</time>
      </trkpt>
      <trkpt lat="46.69767" lon="-2.28971">
        <ele>9.75</ele>
        <time>2016-07-09T09:18:19Z</time>
      </trkpt>
      <trkpt lat="46.69742" lon="-2.28949">
        <ele>10.71</ele>
        <time>2016-07-09T09:18:49Z</time>
      </trkpt>
      <trkpt lat="46.69725" lon="-2.28916">
        <ele>11.67</ele>
        <time>2016-07-09T09:19:19Z</time>
      </trkpt>
      <trkpt lat="46.697" lon="-2.28894">
        <ele>10.71</ele>
        <time>2016-07-09T09:19:49Z</time>
      </trkpt>
      <trkpt lat="46.69678" lon="-2.28862">
        <ele>10.71</ele>
        <time>2016-07-09T09:20:19Z</time>
      </trkpt>
      <trkpt lat="46.6965" lon="-2.28833">
        <ele>8.79</ele>
        <time>2016-07-09T09:20:49Z</time>
      </trkpt>
      <trkpt lat="46.69622" lon="-2.28821">
        <ele>10.71</ele>
        <time>2016-07-09T09:21:19Z</time>
      </trkpt>
      <trkpt lat="46.69597" lon="-2.28802">
        <ele>9.75</ele>
        <time>2016-07-09T09:21:49Z</time>
      </trkpt>
      <trkpt lat="46.69571" lon="-2.28773">
        <ele>8.31</ele>
        <time>2016-07-09T09:22:19Z</time>
      </trkpt>
      <trkpt lat="46.69567" lon="-2.28772">
        <ele>7.83</ele>
        <time>2016-07-09T09:22:49Z</time>
      </trkpt>
      <trkpt lat="46.6957" lon="-2.28772">
        <ele>7.83</ele>
        <time>2016-07-09T09:23:19Z</time>
      </trkpt>
      <trkpt lat="46.69569" lon="-2.28772">
        <ele>7.83</ele>
        <time>2016-07-09T09:23:49Z</time>
      </trkpt>
      <trkpt lat="46.69569" lon="-2.28773">
        <ele>7.83</ele>
        <time>2016-07-09T09:24:19Z</time>
      </trkpt>
      <trkpt lat="46.69569" lon="-2.28772">
        <ele>8.31</ele>
        <time>2016-07-09T09:24:49Z</time>
      </trkpt>
      <trkpt lat="46.69569" lon="-2.28771">
        <ele>8.31</ele>
        <time>2016-07-09T09:25:19Z</time>
      </trkpt>
      <trkpt lat="46.69567" lon="-2.28767">
        <ele>7.83</ele>
        <time>2016-07-09T09:25:49Z</time>
      </trkpt>
      <trkpt lat="46.69563" lon="-2.28764">
        <ele>7.83</ele>
        <time>2016-07-09T09:26:19Z</time>
      </trkpt>
      <trkpt lat="46.69549" lon="-2.28733">
        <ele>8.31</ele>
        <time>2016-07-09T09:26:49Z</time>
      </trkpt>
      <trkpt lat="46.69534" lon="-2.28707">
        <ele>7.35</ele>
        <time>2016-07-09T09:27:19Z</time>
      </trkpt>
      <trkpt lat="46.69506" lon="-2.28683">
        <ele>6.87</ele>
        <time>2016-07-09T09:27:49Z</time>
      </trkpt>
      <trkpt lat="46.69478" lon="-2.28663">
        <ele>7.35</ele>
        <time>2016-07-09T09:28:19Z</time>
      </trkpt>
      <trkpt lat="46.69446" lon="-2.28634">
        <ele>7.35</ele>
        <time>2016-07-09T09:28:49Z</time>
      </trkpt>
      <trkpt lat="46.69414" lon="-2.28607">
        <ele>7.35</ele>
        <time>2016-07-09T09:29:19Z</time>
      </trkpt>
      <trkpt lat="46.69388" lon="-2.28574">
        <ele>8.31</ele>
        <time>2016-07-09T09:29:49Z</time>
      </trkpt>
      <trkpt lat="46.69368" lon="-2.28537">
        <ele>10.23</ele>
        <time>2016-07-09T09:30:19Z</time>
      </trkpt>
      <trkpt lat="46.69342" lon="-2.285">
        <ele>9.75</ele>
        <time>2016-07-09T09:30:49Z</time>
      </trkpt>
      <trkpt lat="46.69327" lon="-2.28484">
        <ele>8.79</ele>
        <time>2016-07-09T09:31:19Z</time>
      </trkpt>
      <trkpt lat="46.69297" lon="-2.28453">
        <ele>10.71</ele>
        <time>2016-07-09T09:31:49Z</time>
      </trkpt>
      <trkpt lat="46.69274" lon="-2.28437">
        <ele>11.19</ele>
        <time>2016-07-09T09:32:19Z</time>
      </trkpt>
      <trkpt lat="46.69267" lon="-2.28432">
        <ele>11.19</ele>
        <time>2016-07-09T09:32:49Z</time>
      </trkpt>
      <trkpt lat="46.6924" lon="-2.28395">
        <ele>10.71</ele>
        <time>2016-07-09T09:33:19Z</time>
      </trkpt>
      <trkpt lat="46.69211" lon="-2.28359">
        <ele>10.71</ele>
        <time>2016-07-09T09:33:49Z</time>
      </trkpt>
      <trkpt lat="46.69188" lon="-2.28325">
        <ele>9.27</ele>
        <time>2016-07-09T09:34:19Z</time>
      </trkpt>
      <trkpt lat="46.69171" lon="-2.2828">
        <ele>8.31</ele>
        <time>2016-07-09T09:34:49Z</time>
      </trkpt>
      <trkpt lat="46.69139" lon="-2.28258">
        <ele>8.79</ele>
        <time>2016-07-09T09:35:19Z</time>
      </trkpt>
      <trkpt lat="46.69128" lon="-2.28248">
        <ele>8.31</ele>
        <time>2016-07-09T09:35:49Z</time>
      </trkpt>
      <trkpt lat="46.69097" lon="-2.2823">
        <ele>7.35</ele>
        <time>2016-07-09T09:36:19Z</time>
      </trkpt>
      <trkpt lat="46.69094" lon="-2.28232">
        <ele>7.83</ele>
        <time>2016-07-09T09:36:49Z</time>
      </trkpt>
      <trkpt lat="46.69109" lon="-2.28239">
        <ele>7.35</ele>
        <time>2016-07-09T09:37:19Z</time>
      </trkpt>
      <trkpt lat="46.69132" lon="-2.28231">
        <ele>7.35</ele>
        <time>2016-07-09T09:37:49Z</time>
      </trkpt>
      <trkpt lat="46.69135" lon="-2.28226">
        <ele>4.94</ele>
        <time>2016-07-09T09:38:19Z</time>
      </trkpt>
      <trkpt lat="46.69135" lon="-2.28229">
        <ele>4.94</ele>
        <time>2016-07-09T09:38:49Z</time>
      </trkpt>
      <trkpt lat="46.69136" lon="-2.2823">
        <ele>5.42</ele>
        <time>2016-07-09T09:39:19Z</time>
      </trkpt>
      <trkpt lat="46.69136" lon="-2.28229">
        <ele>4.94</ele>
        <time>2016-07-09T09:39:49Z</time>
      </trkpt>
      <trkpt lat="46.69137" lon="-2.28229">
        <ele>4.94</ele>
        <time>2016-07-09T09:40:19Z</time>
      </trkpt>
      <trkpt lat="46.69137" lon="-2.2823">
        <ele>5.42</ele>
        <time>2016-07-09T09:40:49Z</time>
      </trkpt>
      <trkpt lat="46.69137" lon="-2.28228">
        <ele>4.94</ele>
        <time>2016-07-09T09:41:19Z</time>
      </trkpt>
      <trkpt lat="46.69136" lon="-2.28229">
        <ele>4.94</ele>
        <time>2016-07-09T09:41:49Z</time>
      </trkpt>
      <trkpt lat="46.69135" lon="-2.2823">
        <ele>4.94</ele>
        <time>2016-07-09T09:42:19Z</time>
      </trkpt>
      <trkpt lat="46.69135" lon="-2.28231">
        <ele>5.91</ele>
        <time>2016-07-09T09:42:49Z</time>
      </trkpt>
      <trkpt lat="46.69137" lon="-2.28232">
        <ele>5.42</ele>
        <time>2016-07-09T09:43:19Z</time>
      </trkpt>
      <trkpt lat="46.69135" lon="-2.28229">
        <ele>5.42</ele>
        <time>2016-07-09T09:43:49Z</time>
      </trkpt>
      <trkpt lat="46.69138" lon="-2.2823">
        <ele>5.42</ele>
        <time>2016-07-09T09:44:19Z</time>
      </trkpt>
      <trkpt lat="46.69137" lon="-2.28229">
        <ele>5.42</ele>
        <time>2016-07-09T09:44:49Z</time>
      </trkpt>
      <trkpt lat="46.69138" lon="-2.2823">
        <ele>5.42</ele>
        <time>2016-07-09T09:45:19Z</time>
      </trkpt>
      <trkpt lat="46.69136" lon="-2.2823">
        <ele>4.94</ele>
        <time>2016-07-09T09:45:49Z</time>
      </trkpt>
      <trkpt lat="46.69137" lon="-2.2823">
        <ele>4.94</ele>
        <time>2016-07-09T09:46:19Z</time>
      </trkpt>
      <trkpt lat="46.69138" lon="-2.2823">
        <ele>5.42</ele>
        <time>2016-07-09T09:46:49Z</time>
      </trkpt>
      <trkpt lat="46.69137" lon="-2.28229">
        <ele>5.42</ele>
        <time>2016-07-09T09:47:19Z</time>
      </trkpt>
      <trkpt lat="46.69138" lon="-2.2823">
        <ele>5.42</ele>
        <time>2016-07-09T09:47:49Z</time>
      </trkpt>
      <trkpt lat="46.69137" lon="-2.2823">
        <ele>5.91</ele>
        <time>2016-07-09T09:48:19Z</time>
      </trkpt>
      <trkpt lat="46.69136" lon="-2.28231">
        <ele>5.42</ele>
        <time>2016-07-09T09:48:49Z</time>
      </trkpt>
      <trkpt lat="46.69137" lon="-2.28229">
        <ele>5.91</ele>
        <time>2016-07-09T09:49:19Z</time>
      </trkpt>
      <trkpt lat="46.69136" lon="-2.2823">
        <ele>5.91</ele>
        <time>2016-07-09T09:49:49Z</time>
      </trkpt>
      <trkpt lat="46.69136" lon="-2.28229">
        <ele>5.42</ele>
        <time>2016-07-09T09:50:19Z</time>
      </trkpt>
      <trkpt lat="46.69136" lon="-2.28229">
        <ele>5.42</ele>
        <time>2016-07-09T09:50:49Z</time>
      </trkpt>
      <trkpt lat="46.69137" lon="-2.28229">
        <ele>5.42</ele>
        <time>2016-07-09T09:51:19Z</time>
      </trkpt>
      <trkpt lat="46.69135" lon="-2.28227">
        <ele>5.91</ele>
        <time>2016-07-09T09:51:49Z</time>
      </trkpt>
      <trkpt lat="46.69137" lon="-2.28228">
        <ele>5.91</ele>
        <time>2016-07-09T09:52:19Z</time>
      </trkpt>
      <trkpt lat="46.69136" lon="-2.28229">
        <ele>5.91</ele>
        <time>2016-07-09T09:52:49Z</time>
      </trkpt>
      <trkpt lat="46.69136" lon="-2.28229">
        <ele>5.42</ele>
        <time>2016-07-09T09:53:19Z</time>
      </trkpt>
      <trkpt lat="46.69135" lon="-2.28229">
        <ele>5.42</ele>
        <time>2016-07-09T09:53:49Z</time>
      </trkpt>
      <trkpt lat="46.69135" lon="-2.2823">
        <ele>5.91</ele>
        <time>2016-07-09T09:54:19Z</time>
      </trkpt>
      <trkpt lat="46.69137" lon="-2.28228">
        <ele>5.42</ele>
        <time>2016-07-09T09:54:49Z</time>
      </trkpt>
      <trkpt lat="46.69137" lon="-2.2823">
        <ele>4.94</ele>
        <time>2016-07-09T09:55:19Z</time>
      </trkpt>
      <trkpt lat="46.69135" lon="-2.2823">
        <ele>5.42</ele>
        <time>2016-07-09T09:55:49Z</time>
      </trkpt>
      <trkpt lat="46.69135" lon="-2.2823">
        <ele>5.42</ele>
        <time>2016-07-09T09:56:19Z</time>
      </trkpt>
      <trkpt lat="46.69136" lon="-2.28231">
        <ele>5.42</ele>
        <time>2016-07-09T09:56:49Z</time>
      </trkpt>
      <trkpt lat="46.69136" lon="-2.2823">
        <ele>5.42</ele>
        <time>2016-07-09T09:57:19Z</time>
      </trkpt>
      <trkpt lat="46.69137" lon="-2.2823">
        <ele>4.94</ele>
        <time>2016-07-09T09:57:49Z</time>
      </trkpt>
      <trkpt lat="46.69137" lon="-2.28229">
        <ele>5.42</ele>
        <time>2016-07-09T09:58:19Z</time>
      </trkpt>
      <trkpt lat="46.69137" lon="-2.2823">
        <ele>5.42</ele>
        <time>2016-07-09T09:58:49Z</time>
      </trkpt>
      <trkpt lat="46.69136" lon="-2.28229">
        <ele>5.42</ele>
        <time>2016-07-09T09:59:19Z</time>
      </trkpt>
      <trkpt lat="46.69137" lon="-2.2823">
        <ele>4.94</ele>
        <time>2016-07-09T09:59:49Z</time>
      </trkpt>
      <trkpt lat="46.69136" lon="-2.28231">
        <ele>5.42</ele>
        <time>2016-07-09T10:00:19Z</time>
      </trkpt>
      <trkpt lat="46.69135" lon="-2.28229">
        <ele>4.94</ele>
        <time>2016-07-09T10:00:49Z</time>
      </trkpt>
      <trkpt lat="46.69135" lon="-2.2823">
        <ele>5.42</ele>
        <time>2016-07-09T10:01:19Z</time>
      </trkpt>
      <trkpt lat="46.69135" lon="-2.2823">
        <ele>5.91</ele>
        <time>2016-07-09T10:01:49Z</time>
      </trkpt>
      <trkpt lat="46.69135" lon="-2.28228">
        <ele>5.42</ele>
        <time>2016-07-09T10:02:19Z</time>
      </trkpt>
      <trkpt lat="46.69136" lon="-2.2823">
        <ele>5.42</ele>
        <time>2016-07-09T10:02:49Z</time>
      </trkpt>
      <trkpt lat="46.69135" lon="-2.28229">
        <ele>5.42</ele>
        <time>2016-07-09T10:03:19Z</time>
      </trkpt>
      <trkpt lat="46.69137" lon="-2.28231">
        <ele>5.42</ele>
        <time>2016-07-09T10:03:49Z</time>
      </trkpt>
      <trkpt lat="46.69135" lon="-2.28229">
        <ele>5.91</ele>
        <time>2016-07-09T10:04:19Z</time>
      </trkpt>
      <trkpt lat="46.69135" lon="-2.2823">
        <ele>5.91</ele>
        <time>2016-07-09T10:04:49Z</time>
      </trkpt>
      <trkpt lat="46.69134" lon="-2.28229">
        <ele>5.91</ele>
        <time>2016-07-09T10:05:19Z</time>
      </trkpt>
      <trkpt lat="46.69136" lon="-2.28229">
        <ele>5.42</ele>
        <time>2016-07-09T10:05:49Z</time>
      </trkpt>
      <trkpt lat="46.69136" lon="-2.28229">
        <ele>5.42</ele>
        <time>2016-07-09T10:06:19Z</time>
      </trkpt>
      <trkpt lat="46.69136" lon="-2.28229">
        <ele>5.91</ele>
        <time>2016-07-09T10:06:49Z</time>
      </trkpt>
      <trkpt lat="46.69136" lon="-2.2823">
        <ele>5.42</ele>
        <time>2016-07-09T10:07:19Z</time>
      </trkpt>
      <trkpt lat="46.69135" lon="-2.28229">
        <ele>5.42</ele>
        <time>2016-07-09T10:07:49Z</time>
      </trkpt>
      <trkpt lat="46.69134" lon="-2.2823">
        <ele>5.91</ele>
        <time>2016-07-09T10:08:19Z</time>
      </trkpt>
      <trkpt lat="46.69135" lon="-2.2823">
        <ele>5.42</ele>
        <time>2016-07-09T10:08:49Z</time>
      </trkpt>
      <trkpt lat="46.69136" lon="-2.28229">
        <ele>5.42</ele>
        <time>2016-07-09T10:09:19Z</time>
      </trkpt>
      <trkpt lat="46.69136" lon="-2.28229">
        <ele>5.42</ele>
        <time>2016-07-09T10:09:49Z</time>
      </trkpt>
      <trkpt lat="46.69135" lon="-2.28229">
        <ele>5.42</ele>
        <time>2016-07-09T10:10:19Z</time>
      </trkpt>
      <trkpt lat="46.69137" lon="-2.2823">
        <ele>4.94</ele>
        <time>2016-07-09T10:10:49Z</time>
      </trkpt>
      <trkpt lat="46.69135" lon="-2.28229">
        <ele>5.42</ele>
        <time>2016-07-09T10:11:19Z</time>
      </trkpt>
      <trkpt lat="46.69136" lon="-2.28229">
        <ele>4.94</ele>
        <time>2016-07-09T10:11:49Z</time>
      </trkpt>
      <trkpt lat="46.69135" lon="-2.28228">
        <ele>4.46</ele>
        <time>2016-07-09T10:12:19Z</time>
      </trkpt>
      <trkpt lat="46.69134" lon="-2.2823">
        <ele>5.42</ele>
        <time>2016-07-09T10:12:49Z</time>
      </trkpt>
      <trkpt lat="46.69134" lon="-2.2823">
        <ele>5.42</ele>
        <time>2016-07-09T10:13:19Z</time>
      </trkpt>
      <trkpt lat="46.69136" lon="-2.28228">
        <ele>5.91</ele>
        <time>2016-07-09T10:13:49Z</time>
      </trkpt>
      <trkpt lat="46.69138" lon="-2.28227">
        <ele>5.42</ele>
        <time>2016-07-09T10:14:19Z</time>
      </trkpt>
      <trkpt lat="46.69137" lon="-2.28229">
        <ele>5.42</ele>
        <time>2016-07-09T10:14:49Z</time>
      </trkpt>
      <trkpt lat="46.69137" lon="-2.28228">
        <ele>5.42</ele>
        <time>2016-07-09T10:15:19Z</time>
      </trkpt>
      <trkpt lat="46.69137" lon="-2.28229">
        <ele>4.94</ele>
        <time>2016-07-09T10:15:49Z</time>
      </trkpt>
      <trkpt lat="46.69138" lon="-2.28229">
        <ele>5.42</ele>
        <time>2016-07-09T10:16:19Z</time>
      </trkpt>
      <trkpt lat="46.69138" lon="-2.28228">
        <ele>5.42</ele>
        <time>2016-07-09T10:16:49Z</time>
      </trkpt>
      <trkpt lat="46.69139" lon="-2.28228">
        <ele>5.42</ele>
        <time>2016-07-09T10:17:19Z</time>
      </trkpt>
      <trkpt lat="46.69132" lon="-2.28229">
        <ele>5.42</ele>
        <time>2016-07-09T10:17:49Z</time>
      </trkpt>
      <trkpt lat="46.69111" lon="-2.28233">
        <ele>8.31</ele>
        <time>2016-07-09T10:18:19Z</time>
      </trkpt>
      <trkpt lat="46.6909" lon="-2.28238">
        <ele>7.35</ele>
        <time>2016-07-09T10:18:49Z</time>
      </trkpt>
      <trkpt lat="46.69081" lon="-2.28274">
        <ele>7.35</ele>
        <time>2016-07-09T10:19:19Z</time>
      </trkpt>
      <trkpt lat="46.69073" lon="-2.2831">
        <ele>8.31</ele>
        <time>2016-07-09T10:19:49Z</time>
      </trkpt>
      <trkpt lat="46.69064" lon="-2.28353">
        <ele>10.23</ele>
        <time>2016-07-09T10:20:19Z</time>
      </trkpt>
      <trkpt lat="46.69052" lon="-2.28399">
        <ele>10.71</ele>
        <time>2016-07-09T10:20:49Z</time>
      </trkpt>
      <trkpt lat="46.69042" lon="-2.28442">
        <ele>12.63</ele>
        <time>2016-07-09T10:21:19Z</time>
      </trkpt>
      <trkpt lat="46.69033" lon="-2.28485">
        <ele>13.6</ele>
        <time>2016-07-09T10:21:49Z</time>
      </trkpt>
      <trkpt lat="46.69025" lon="-2.28499">
        <ele>14.08</ele>
        <time>2016-07-09T10:22:19Z</time>
      </trkpt>
      <trkpt lat="46.69025" lon="-2.285">
        <ele>14.56</ele>
        <time>2016-07-09T10:22:49Z</time>
      </trkpt>
      <trkpt lat="46.69022" lon="-2.28542">
        <ele>13.6</ele>
        <time>2016-07-09T10:23:19Z</time>
      </trkpt>
      <trkpt lat="46.69024" lon="-2.28568">
        <ele>13.6</ele>
        <time>2016-07-09T10:23:49Z</time>
      </trkpt>
      <trkpt lat="46.69027" lon="-2.28595">
        <ele>12.63</ele>
        <time>2016-07-09T10:24:19Z</time>
      </trkpt>
      <trkpt lat="46.69025" lon="-2.28601">
        <ele>14.08</ele>
        <time>2016-07-09T10:24:49Z</time>
      </trkpt>
      <trkpt lat="46.69025" lon="-2.28599">
        <ele>13.6</ele>
        <time>2016-07-09T10:25:19Z</time>
      </trkpt>
      <trkpt lat="46.69024" lon="-2.28604">
        <ele>12.63</ele>
        <time>2016-07-09T10:25:49Z</time>
      </trkpt>
      <trkpt lat="46.69024" lon="-2.28604">
        <ele>12.63</ele>
        <time>2016-07-09T10:26:19Z</time>
      </trkpt>
      <trkpt lat="46.69024" lon="-2.28604">
        <ele>12.15</ele>
        <time>2016-07-09T10:26:49Z</time>
      </trkpt>
      <trkpt lat="46.69024" lon="-2.28604">
        <ele>12.15</ele>
        <time>2016-07-09T10:27:19Z</time>
      </trkpt>
      <trkpt lat="46.69024" lon="-2.28604">
        <ele>12.63</ele>
        <time>2016-07-09T10:27:49Z</time>
      </trkpt>
      <trkpt lat="46.69024" lon="-2.28605">
        <ele>12.15</ele>
        <time>2016-07-09T10:28:19Z</time>
      </trkpt>
      <trkpt lat="46.69024" lon="-2.28605">
        <ele>12.63</ele>
        <time>2016-07-09T10:28:49Z</time>
      </trkpt>
      <trkpt lat="46.69023" lon="-2.28604">
        <ele>12.15</ele>
        <time>2016-07-09T10:29:19Z</time>
      </trkpt>
      <trkpt lat="46.69024" lon="-2.28605">
        <ele>12.15</ele>
        <time>2016-07-09T10:29:49Z</time>
      </trkpt>
      <trkpt lat="46.69023" lon="-2.28604">
        <ele>12.15</ele>
        <time>2016-07-09T10:30:19Z</time>
      </trkpt>
      <trkpt lat="46.69023" lon="-2.28604">
        <ele>12.15</ele>
        <time>2016-07-09T10:30:49Z</time>
      </trkpt>
      <trkpt lat="46.69023" lon="-2.28603">
        <ele>11.67</ele>
        <time>2016-07-09T10:31:19Z</time>
      </trkpt>
      <trkpt lat="46.69023" lon="-2.28604">
        <ele>12.15</ele>
        <time>2016-07-09T10:31:49Z</time>
      </trkpt>
      <trkpt lat="46.69023" lon="-2.28605">
        <ele>12.15</ele>
        <time>2016-07-09T10:32:19Z</time>
      </trkpt>
      <trkpt lat="46.69023" lon="-2.28605">
        <ele>12.15</ele>
        <time>2016-07-09T10:32:49Z</time>
      </trkpt>
      <trkpt lat="46.69023" lon="-2.28605">
        <ele>11.67</ele>
        <time>2016-07-09T10:33:19Z</time>
      </trkpt>
      <trkpt lat="46.69023" lon="-2.28605">
        <ele>12.15</ele>
        <time>2016-07-09T10:33:49Z</time>
      </trkpt>
      <trkpt lat="46.69024" lon="-2.28605">
        <ele>12.15</ele>
        <time>2016-07-09T10:34:19Z</time>
      </trkpt>
      <trkpt lat="46.69024" lon="-2.28606">
        <ele>12.15</ele>
        <time>2016-07-09T10:34:49Z</time>
      </trkpt>
      <trkpt lat="46.69024" lon="-2.28605">
        <ele>12.15</ele>
        <time>2016-07-09T10:35:19Z</time>
      </trkpt>
      <trkpt lat="46.69024" lon="-2.28604">
        <ele>12.15</ele>
        <time>2016-07-09T10:35:49Z</time>
      </trkpt>
      <trkpt lat="46.69023" lon="-2.28603">
        <ele>12.15</ele>
        <time>2016-07-09T10:36:19Z</time>
      </trkpt>
      <trkpt lat="46.69024" lon="-2.28603">
        <ele>12.15</ele>
        <time>2016-07-09T10:36:49Z</time>
      </trkpt>
      <trkpt lat="46.69024" lon="-2.28604">
        <ele>12.63</ele>
        <time>2016-07-09T10:37:19Z</time>
      </trkpt>
      <trkpt lat="46.69025" lon="-2.28605">
        <ele>12.63</ele>
        <time>2016-07-09T10:37:49Z</time>
      </trkpt>
      <trkpt lat="46.69025" lon="-2.28606">
        <ele>12.63</ele>
        <time>2016-07-09T10:38:19Z</time>
      </trkpt>
      <trkpt lat="46.69025" lon="-2.28606">
        <ele>12.63</ele>
        <time>2016-07-09T10:38:49Z</time>
      </trkpt>
      <trkpt lat="46.69025" lon="-2.28607">
        <ele>12.63</ele>
        <time>2016-07-09T10:39:19Z</time>
      </trkpt>
      <trkpt lat="46.69027" lon="-2.28606">
        <ele>12.63</ele>
        <time>2016-07-09T10:39:49Z</time>
      </trkpt>
      <trkpt lat="46.69025" lon="-2.28606">
        <ele>13.12</ele>
        <time>2016-07-09T10:40:19Z</time>
      </trkpt>
      <trkpt lat="46.69026" lon="-2.28606">
        <ele>13.12</ele>
        <time>2016-07-09T10:40:49Z</time>
      </trkpt>
      <trkpt lat="46.69025" lon="-2.28605">
        <ele>13.12</ele>
        <time>2016-07-09T10:41:19Z</time>
      </trkpt>
      <trkpt lat="46.69025" lon="-2.28605">
        <ele>12.63</ele>
        <time>2016-07-09T10:41:49Z</time>
      </trkpt>
      <trkpt lat="46.69025" lon="-2.28605">
        <ele>12.63</ele>
        <time>2016-07-09T10:42:19Z</time>
      </trkpt>
      <trkpt lat="46.69025" lon="-2.28605">
        <ele>13.12</ele>
        <time>2016-07-09T10:42:49Z</time>
      </trkpt>
      <trkpt lat="46.69024" lon="-2.28605">
        <ele>13.12</ele>
        <time>2016-07-09T10:43:19Z</time>
      </trkpt>
      <trkpt lat="46.69025" lon="-2.28605">
        <ele>13.12</ele>
        <time>2016-07-09T10:43:49Z</time>
      </trkpt>
      <trkpt lat="46.69025" lon="-2.28605">
        <ele>13.6</ele>
        <time>2016-07-09T10:44:19Z</time>
      </trkpt>
      <trkpt lat="46.69026" lon="-2.28606">
        <ele>13.6</ele>
        <time>2016-07-09T10:44:49Z</time>
      </trkpt>
      <trkpt lat="46.69025" lon="-2.28605">
        <ele>13.6</ele>
        <time>2016-07-09T10:45:19Z</time>
      </trkpt>
      <trkpt lat="46.69024" lon="-2.28604">
        <ele>13.6</ele>
        <time>2016-07-09T10:45:49Z</time>
      </trkpt>
      <trkpt lat="46.69024" lon="-2.28605">
        <ele>13.12</ele>
        <time>2016-07-09T10:46:19Z</time>
      </trkpt>
      <trkpt lat="46.69025" lon="-2.28605">
        <ele>13.12</ele>
        <time>2016-07-09T10:46:49Z</time>
      </trkpt>
      <trkpt lat="46.69024" lon="-2.28604">
        <ele>13.6</ele>
        <time>2016-07-09T10:47:19Z</time>
      </trkpt>
      <trkpt lat="46.69025" lon="-2.28605">
        <ele>13.12</ele>
        <time>2016-07-09T10:47:49Z</time>
      </trkpt>
      <trkpt lat="46.69024" lon="-2.28606">
        <ele>13.6</ele>
        <time>2016-07-09T10:48:19Z</time>
      </trkpt>
      <trkpt lat="46.69025" lon="-2.28606">
        <ele>13.6</ele>
        <time>2016-07-09T10:48:49Z</time>
      </trkpt>
      <trkpt lat="46.69025" lon="-2.28606">
        <ele>13.6</ele>
        <time>2016-07-09T10:49:19Z</time>
      </trkpt>
      <trkpt lat="46.69025" lon="-2.28606">
        <ele>13.6</ele>
        <time>2016-07-09T10:49:49Z</time>
      </trkpt>
      <trkpt lat="46.69026" lon="-2.28606">
        <ele>13.6</ele>
        <time>2016-07-09T10:50:19Z</time>
      </trkpt>
      <trkpt lat="46.69024" lon="-2.28604">
        <ele>13.6</ele>
        <time>2016-07-09T10:50:49Z</time>
      </trkpt>
      <trkpt lat="46.69025" lon="-2.28601">
        <ele>14.56</ele>
        <time>2016-07-09T10:51:19Z</time>
      </trkpt>
      <trkpt lat="46.69027" lon="-2.286">
        <ele>14.08</ele>
        <time>2016-07-09T10:51:49Z</time>
      </trkpt>
      <trkpt lat="46.69043" lon="-2.2859">
        <ele>14.08</ele>
        <time>2016-07-09T10:52:19Z</time>
      </trkpt>
      <trkpt lat="46.69067" lon="-2.28584">
        <ele>14.08</ele>
        <time>2016-07-09T10:52:49Z</time>
      </trkpt>
      <trkpt lat="46.69097" lon="-2.28605">
        <ele>12.63</ele>
        <time>2016-07-09T10:53:19Z</time>
      </trkpt>
      <trkpt lat="46.69115" lon="-2.28633">
        <ele>13.6</ele>
        <time>2016-07-09T10:53:49Z</time>
      </trkpt>
      <trkpt lat="46.69121" lon="-2.28674">
        <ele>13.12</ele>
        <time>2016-07-09T10:54:19Z</time>
      </trkpt>
      <trkpt lat="46.69126" lon="-2.28717">
        <ele>14.08</ele>
        <time>2016-07-09T10:54:49Z</time>
      </trkpt>
      <trkpt lat="46.69149" lon="-2.28752">
        <ele>13.6</ele>
        <time>2016-07-09T10:55:19Z</time>
      </trkpt>
      <trkpt lat="46.69173" lon="-2.28786">
        <ele>11.67</ele>
        <time>2016-07-09T10:55:49Z</time>
      </trkpt>
      <trkpt lat="46.69195" lon="-2.28814">
        <ele>11.19</ele>
        <time>2016-07-09T10:56:19Z</time>
      </trkpt>
      <trkpt lat="46.69227" lon="-2.28811">
        <ele>11.19</ele>
        <time>2016-07-09T10:56:49Z</time>
      </trkpt>
      <trkpt lat="46.69249" lon="-2.28847">
        <ele>10.71</ele>
        <time>2016-07-09T10:57:19Z</time>
      </trkpt>
      <trkpt lat="46.69266" lon="-2.28891">
        <ele>10.71</ele>
        <time>2016-07-09T10:57:49Z</time>
      </trkpt>
      <trkpt lat="46.69279" lon="-2.28938">
        <ele>10.23</ele>
        <time>2016-07-09T10:58:19Z</time>
      </trkpt>
      <trkpt lat="46.69287" lon="-2.28988">
        <ele>10.23</ele>
        <time>2016-07-09T10:58:49Z</time>
      </trkpt>
      <trkpt lat="46.69287" lon="-2.29034">
        <ele>9.27</ele>
        <time>2016-07-09T10:59:19Z</time>
      </trkpt>
      <trkpt lat="46.69284" lon="-2.29078">
        <ele>10.23</ele>
        <time>2016-07-09T10:59:49Z</time>
      </trkpt>
      <trkpt lat="46.69285" lon="-2.2908">
        <ele>11.19</ele>
        <time>2016-07-09T11:00:19Z</time>
      </trkpt>
      <trkpt lat="46.69313" lon="-2.29089">
        <ele>11.19</ele>
        <time>2016-07-09T11:00:49Z</time>
      </trkpt>
      <trkpt lat="46.69327" lon="-2.29136">
        <ele>11.67</ele>
        <time>2016-07-09T11:01:19Z</time>
      </trkpt>
      <trkpt lat="46.69318" lon="-2.29181">
        <ele>13.12</ele>
        <time>2016-07-09T11:01:49Z</time>
      </trkpt>
      <trkpt lat="46.69314" lon="-2.29194">
        <ele>14.56</ele>
        <time>2016-07-09T11:02:19Z</time>
      </trkpt>
      <trkpt lat="46.69312" lon="-2.29204">
        <ele>14.56</ele>
        <time>2016-07-09T11:02:49Z</time>
      </trkpt>
      <trkpt lat="46.69307" lon="-2.29237">
        <ele>14.56</ele>
        <time>2016-07-09T11:03:19Z</time>
      </trkpt>
      <trkpt lat="46.69311" lon="-2.29291">
        <ele>14.08</ele>
        <time>2016-07-09T11:03:49Z</time>
      </trkpt>
      <trkpt lat="46.69321" lon="-2.29342">
        <ele>13.12</ele>
        <time>2016-07-09T11:04:19Z</time>
      </trkpt>
      <trkpt lat="46.6932" lon="-2.29394">
        <ele>12.63</ele>
        <time>2016-07-09T11:04:49Z</time>
      </trkpt>
      <trkpt lat="46.69315" lon="-2.29434">
        <ele>13.12</ele>
        <time>2016-07-09T11:05:19Z</time>
      </trkpt>
      <trkpt lat="46.69328" lon="-2.29474">
        <ele>13.12</ele>
        <time>2016-07-09T11:05:49Z</time>
      </trkpt>
      <trkpt lat="46.69325" lon="-2.29488">
        <ele>12.15</ele>
        <time>2016-07-09T11:06:19Z</time>
      </trkpt>
      <trkpt lat="46.69336" lon="-2.29502">
        <ele>13.12</ele>
        <time>2016-07-09T11:06:49Z</time>
      </trkpt>
      <trkpt lat="46.69353" lon="-2.29538">
        <ele>12.15</ele>
        <time>2016-07-09T11:07:19Z</time>
      </trkpt>
      <trkpt lat="46.69361" lon="-2.29589">
        <ele>13.12</ele>
        <time>2016-07-09T11:07:49Z</time>
      </trkpt>
      <trkpt lat="46.69359" lon="-2.29642">
        <ele>13.6</ele>
        <time>2016-07-09T11:08:19Z</time>
      </trkpt>
      <trkpt lat="46.6935" lon="-2.29696">
        <ele>13.6</ele>
        <time>2016-07-09T11:08:49Z</time>
      </trkpt>
      <trkpt lat="46.69336" lon="-2.2974">
        <ele>13.6</ele>
        <time>2016-07-09T11:09:19Z</time>
      </trkpt>
      <trkpt lat="46.69316" lon="-2.29785">
        <ele>13.12</ele>
        <time>2016-07-09T11:09:49Z</time>
      </trkpt>
      <trkpt lat="46.693" lon="-2.29812">
        <ele>13.6</ele>
        <time>2016-07-09T11:10:19Z</time>
      </trkpt>
      <trkpt lat="46.69302" lon="-2.29809">
        <ele>11.67</ele>
        <time>2016-07-09T11:10:49Z</time>
      </trkpt>
      <trkpt lat="46.69301" lon="-2.29809">
        <ele>11.67</ele>
        <time>2016-07-09T11:11:19Z</time>
      </trkpt>
      <trkpt lat="46.69301" lon="-2.29809">
        <ele>11.67</ele>
        <time>2016-07-09T11:11:49Z</time>
      </trkpt>
      <trkpt lat="46.69302" lon="-2.2981">
        <ele>11.67</ele>
        <time>2016-07-09T11:12:19Z</time>
      </trkpt>
      <trkpt lat="46.69302" lon="-2.29808">
        <ele>12.63</ele>
        <time>2016-07-09T11:12:49Z</time>
      </trkpt>
      <trkpt lat="46.69298" lon="-2.29818">
        <ele>12.15</ele>
        <time>2016-07-09T11:13:19Z</time>
      </trkpt>
      <trkpt lat="46.69284" lon="-2.2987">
        <ele>11.67</ele>
        <time>2016-07-09T11:13:49Z</time>
      </trkpt>
      <trkpt lat="46.69267" lon="-2.29913">
        <ele>13.12</ele>
        <time>2016-07-09T11:14:19Z</time>
      </trkpt>
      <trkpt lat="46.69256" lon="-2.29934">
        <ele>14.56</ele>
        <time>2016-07-09T11:14:49Z</time>
      </trkpt>
      <trkpt lat="46.69258" lon="-2.29932">
        <ele>13.6</ele>
        <time>2016-07-09T11:15:19Z</time>
      </trkpt>
      <trkpt lat="46.69258" lon="-2.29933">
        <ele>13.12</ele>
        <time>2016-07-09T11:15:49Z</time>
      </trkpt>
      <trkpt lat="46.69258" lon="-2.29934">
        <ele>13.6</ele>
        <time>2016-07-09T11:16:19Z</time>
      </trkpt>
      <trkpt lat="46.69257" lon="-2.29933">
        <ele>13.6</ele>
        <time>2016-07-09T11:16:49Z</time>
      </trkpt>
      <trkpt lat="46.69258" lon="-2.29933">
        <ele>10.23</ele>
        <time>2016-07-09T11:17:19Z</time>
      </trkpt>
      <trkpt lat="46.69257" lon="-2.29932">
        <ele>14.08</ele>
        <time>2016-07-09T11:17:49Z</time>
      </trkpt>
      <trkpt lat="46.69261" lon="-2.29937">
        <ele>14.56</ele>
        <time>2016-07-09T11:18:19Z</time>
      </trkpt>
      <trkpt lat="46.69268" lon="-2.29965">
        <ele>14.56</ele>
        <time>2016-07-09T11:18:49Z</time>
      </trkpt>
      <trkpt lat="46.6927" lon="-2.29975">
        <ele>15.04</ele>
        <time>2016-07-09T11:19:19Z</time>
      </trkpt>
      <trkpt lat="46.69265" lon="-2.29982">
        <ele>15.04</ele>
        <time>2016-07-09T11:19:49Z</time>
      </trkpt>
      <trkpt lat="46.69263" lon="-2.2998">
        <ele>14.56</ele>
        <time>2016-07-09T11:20:19Z</time>
      </trkpt>
      <trkpt lat="46.69264" lon="-2.29981">
        <ele>14.56</ele>
        <time>2016-07-09T11:20:49Z</time>
      </trkpt>
      <trkpt lat="46.69266" lon="-2.30007">
        <ele>16</ele>
        <time>2016-07-09T11:21:19Z</time>
      </trkpt>
      <trkpt lat="46.6928" lon="-2.30056">
        <ele>14.56</ele>
        <time>2016-07-09T11:21:49Z</time>
      </trkpt>
      <trkpt lat="46.69285" lon="-2.30062">
        <ele>14.08</ele>
        <time>2016-07-09T11:22:19Z</time>
      </trkpt>
      <trkpt lat="46.69289" lon="-2.30102">
        <ele>14.08</ele>
        <time>2016-07-09T11:22:49Z</time>
      </trkpt>
      <trkpt lat="46.69317" lon="-2.30129">
        <ele>14.56</ele>
        <time>2016-07-09T11:23:19Z</time>
      </trkpt>
      <trkpt lat="46.69347" lon="-2.30159">
        <ele>14.08</ele>
        <time>2016-07-09T11:23:49Z</time>
      </trkpt>
      <trkpt lat="46.69359" lon="-2.30208">
        <ele>15.52</ele>
        <time>2016-07-09T11:24:19Z</time>
      </trkpt>
      <trkpt lat="46.69366" lon="-2.30259">
        <ele>16.96</ele>
        <time>2016-07-09T11:24:49Z</time>
      </trkpt>
      <trkpt lat="46.6937" lon="-2.30314">
        <ele>17.92</ele>
        <time>2016-07-09T11:25:19Z</time>
      </trkpt>
      <trkpt lat="46.69374" lon="-2.30365">
        <ele>17.44</ele>
        <time>2016-07-09T11:25:49Z</time>
      </trkpt>
      <trkpt lat="46.69361" lon="-2.30414">
        <ele>17.92</ele>
        <time>2016-07-09T11:26:19Z</time>
      </trkpt>
      <trkpt lat="46.69365" lon="-2.30466">
        <ele>18.4</ele>
        <time>2016-07-09T11:26:49Z</time>
      </trkpt>
      <trkpt lat="46.69387" lon="-2.30487">
        <ele>18.88</ele>
        <time>2016-07-09T11:27:19Z</time>
      </trkpt>
      <trkpt lat="46.69408" lon="-2.30535">
        <ele>17.44</ele>
        <time>2016-07-09T11:27:49Z</time>
      </trkpt>
      <trkpt lat="46.69426" lon="-2.30581">
        <ele>18.4</ele>
        <time>2016-07-09T11:28:19Z</time>
      </trkpt>
      <trkpt lat="46.69458" lon="-2.3061">
        <ele>17.92</ele>
        <time>2016-07-09T11:28:49Z</time>
      </trkpt>
      <trkpt lat="46.69487" lon="-2.30642">
        <ele>18.88</ele>
        <time>2016-07-09T11:29:19Z</time>
      </trkpt>
      <trkpt lat="46.69496" lon="-2.30648">
        <ele>18.88</ele>
        <time>2016-07-09T11:29:49Z</time>
      </trkpt>
      <trkpt lat="46.69502" lon="-2.30661">
        <ele>18.88</ele>
        <time>2016-07-09T11:30:19Z</time>
      </trkpt>
      <trkpt lat="46.695" lon="-2.30684">
        <ele>18.4</ele>
        <time>2016-07-09T11:30:49Z</time>
      </trkpt>
      <trkpt lat="46.69494" lon="-2.30738">
        <ele>18.4</ele>
        <time>2016-07-09T11:31:19Z</time>
      </trkpt>
      <trkpt lat="46.69493" lon="-2.3079">
        <ele>17.44</ele>
        <time>2016-07-09T11:31:49Z</time>
      </trkpt>
      <trkpt lat="46.69518" lon="-2.30814">
        <ele>16.48</ele>
        <time>2016-07-09T11:32:19Z</time>
      </trkpt>
      <trkpt lat="46.69537" lon="-2.30831">
        <ele>15.52</ele>
        <time>2016-07-09T11:32:49Z</time>
      </trkpt>
      <trkpt lat="46.69553" lon="-2.30878">
        <ele>15.04</ele>
        <time>2016-07-09T11:33:19Z</time>
      </trkpt>
      <trkpt lat="46.69587" lon="-2.30896">
        <ele>16</ele>
        <time>2016-07-09T11:33:49Z</time>
      </trkpt>
      <trkpt lat="46.69594" lon="-2.30934">
        <ele>16</ele>
        <time>2016-07-09T11:34:19Z</time>
      </trkpt>
      <trkpt lat="46.69598" lon="-2.30932">
        <ele>16</ele>
        <time>2016-07-09T11:34:49Z</time>
      </trkpt>
      <trkpt lat="46.69595" lon="-2.30981">
        <ele>15.52</ele>
        <time>2016-07-09T11:35:19Z</time>
      </trkpt>
      <trkpt lat="46.69578" lon="-2.31025">
        <ele>15.04</ele>
        <time>2016-07-09T11:35:49Z</time>
      </trkpt>
      <trkpt lat="46.69577" lon="-2.31076">
        <ele>15.04</ele>
        <time>2016-07-09T11:36:19Z</time>
      </trkpt>
      <trkpt lat="46.69604" lon="-2.3111">
        <ele>14.56</ele>
        <time>2016-07-09T11:36:49Z</time>
      </trkpt>
      <trkpt lat="46.69605" lon="-2.31117">
        <ele>14.56</ele>
        <time>2016-07-09T11:37:19Z</time>
      </trkpt>
      <trkpt lat="46.69641" lon="-2.31112">
        <ele>15.52</ele>
        <time>2016-07-09T11:37:49Z</time>
      </trkpt>
      <trkpt lat="46.69656" lon="-2.31139">
        <ele>15.04</ele>
        <time>2016-07-09T11:38:19Z</time>
      </trkpt>
      <trkpt lat="46.69669" lon="-2.31177">
        <ele>15.04</ele>
        <time>2016-07-09T11:38:49Z</time>
      </trkpt>
      <trkpt lat="46.69679" lon="-2.31178">
        <ele>15.52</ele>
        <time>2016-07-09T11:39:19Z</time>
      </trkpt>
      <trkpt lat="46.69678" lon="-2.31183">
        <ele>15.52</ele>
        <time>2016-07-09T11:39:49Z</time>
      </trkpt>
      <trkpt lat="46.69677" lon="-2.31185">
        <ele>15.04</ele>
        <time>2016-07-09T11:40:19Z</time>
      </trkpt>
      <trkpt lat="46.69677" lon="-2.31201">
        <ele>15.52</ele>
        <time>2016-07-09T11:40:49Z</time>
      </trkpt>
      <trkpt lat="46.69681" lon="-2.31227">
        <ele>16.48</ele>
        <time>2016-07-09T11:41:19Z</time>
      </trkpt>
      <trkpt lat="46.69676" lon="-2.31245">
        <ele>16.48</ele>
        <time>2016-07-09T11:41:49Z</time>
      </trkpt>
      <trkpt lat="46.69675" lon="-2.31247">
        <ele>16.48</ele>
        <time>2016-07-09T11:42:19Z</time>
      </trkpt>
      <trkpt lat="46.69677" lon="-2.31257">
        <ele>16.48</ele>
        <time>2016-07-09T11:42:49Z</time>
      </trkpt>
      <trkpt lat="46.69675" lon="-2.31272">
        <ele>16.48</ele>
        <time>2016-07-09T11:43:19Z</time>
      </trkpt>
      <trkpt lat="46.69659" lon="-2.31313">
        <ele>16.48</ele>
        <time>2016-07-09T11:43:49Z</time>
      </trkpt>
      <trkpt lat="46.6964" lon="-2.31357">
        <ele>15.04</ele>
        <time>2016-07-09T11:44:19Z</time>
      </trkpt>
      <trkpt lat="46.69622" lon="-2.31405">
        <ele>14.56</ele>
        <time>2016-07-09T11:44:49Z</time>
      </trkpt>
      <trkpt lat="46.69605" lon="-2.31451">
        <ele>13.12</ele>
        <time>2016-07-09T11:45:19Z</time>
      </trkpt>
      <trkpt lat="46.69579" lon="-2.31474">
        <ele>12.15</ele>
        <time>2016-07-09T11:45:49Z</time>
      </trkpt>
      <trkpt lat="46.69574" lon="-2.31474">
        <ele>11.67</ele>
        <time>2016-07-09T11:46:19Z</time>
      </trkpt>
      <trkpt lat="46.6954" lon="-2.31488">
        <ele>13.12</ele>
        <time>2016-07-09T11:46:49Z</time>
      </trkpt>
      <trkpt lat="46.69522" lon="-2.31525">
        <ele>16.96</ele>
        <time>2016-07-09T11:47:19Z</time>
      </trkpt>
      <trkpt lat="46.69503" lon="-2.31546">
        <ele>20.32</ele>
        <time>2016-07-09T11:47:49Z</time>
      </trkpt>
      <trkpt lat="46.69485" lon="-2.31565">
        <ele>20.81</ele>
        <time>2016-07-09T11:48:19Z</time>
      </trkpt>
      <trkpt lat="46.69465" lon="-2.3159">
        <ele>18.88</ele>
        <time>2016-07-09T11:48:49Z</time>
      </trkpt>
      <trkpt lat="46.69444" lon="-2.3159">
        <ele>16.96</ele>
        <time>2016-07-09T11:49:19Z</time>
      </trkpt>
      <trkpt lat="46.69427" lon="-2.31574">
        <ele>15.04</ele>
        <time>2016-07-09T11:49:49Z</time>
      </trkpt>
      <trkpt lat="46.69399" lon="-2.31569">
        <ele>13.12</ele>
        <time>2016-07-09T11:50:19Z</time>
      </trkpt>
      <trkpt lat="46.69372" lon="-2.31568">
        <ele>14.08</ele>
        <time>2016-07-09T11:50:49Z</time>
      </trkpt>
      <trkpt lat="46.69345" lon="-2.31549">
        <ele>15.04</ele>
        <time>2016-07-09T11:51:19Z</time>
      </trkpt>
      <trkpt lat="46.69335" lon="-2.31561">
        <ele>15.52</ele>
        <time>2016-07-09T11:51:49Z</time>
      </trkpt>
      <trkpt lat="46.69319" lon="-2.31582">
        <ele>16</ele>
        <time>2016-07-09T11:52:19Z</time>
      </trkpt>
      <trkpt lat="46.6931" lon="-2.31604">
        <ele>17.44</ele>
        <time>2016-07-09T11:52:49Z</time>
      </trkpt>
      <trkpt lat="46.69286" lon="-2.31636">
        <ele>20.32</ele>
        <time>2016-07-09T11:53:19Z</time>
      </trkpt>
      <trkpt lat="46.69259" lon="-2.31654">
        <ele>22.73</ele>
        <time>2016-07-09T11:53:49Z</time>
      </trkpt>
      <trkpt lat="46.69228" lon="-2.31649">
        <ele>23.69</ele>
        <time>2016-07-09T11:54:19Z</time>
      </trkpt>
      <trkpt lat="46.69203" lon="-2.31634">
        <ele>24.17</ele>
        <time>2016-07-09T11:54:49Z</time>
      </trkpt>
      <trkpt lat="46.69203" lon="-2.31633">
        <ele>24.17</ele>
        <time>2016-07-09T11:55:19Z</time>
      </trkpt>
      <trkpt lat="46.69204" lon="-2.31632">
        <ele>24.17</ele>
        <time>2016-07-09T11:55:49Z</time>
      </trkpt>
      <trkpt lat="46.69189" lon="-2.31674">
        <ele>25.13</ele>
        <time>2016-07-09T11:56:19Z</time>
      </trkpt>
      <trkpt lat="46.69188" lon="-2.31693">
        <ele>25.13</ele>
        <time>2016-07-09T11:56:49Z</time>
      </trkpt>
      <trkpt lat="46.69186" lon="-2.31737">
        <ele>25.13</ele>
        <time>2016-07-09T11:57:19Z</time>
      </trkpt>
      <trkpt lat="46.69186" lon="-2.31774">
        <ele>25.13</ele>
        <time>2016-07-09T11:57:49Z</time>
      </trkpt>
      <trkpt lat="46.69187" lon="-2.31828">
        <ele>24.65</ele>
        <time>2016-07-09T11:58:19Z</time>
      </trkpt>
      <trkpt lat="46.69204" lon="-2.3188">
        <ele>23.69</ele>
        <time>2016-07-09T11:58:49Z</time>
      </trkpt>
      <trkpt lat="46.69202" lon="-2.31918">
        <ele>23.69</ele>
        <time>2016-07-09T11:59:19Z</time>
      </trkpt>
      <trkpt lat="46.69183" lon="-2.31945">
        <ele>24.65</ele>
        <time>2016-07-09T11:59:49Z</time>
      </trkpt>
      <trkpt lat="46.69154" lon="-2.31956">
        <ele>24.65</ele>
        <time>2016-07-09T12:00:19Z</time>
      </trkpt>
      <trkpt lat="46.69135" lon="-2.31972">
        <ele>26.09</ele>
        <time>2016-07-09T12:00:49Z</time>
      </trkpt>
      <trkpt lat="46.69125" lon="-2.32">
        <ele>25.13</ele>
        <time>2016-07-09T12:01:19Z</time>
      </trkpt>
      <trkpt lat="46.69128" lon="-2.3205">
        <ele>23.21</ele>
        <time>2016-07-09T12:01:49Z</time>
      </trkpt>
      <trkpt lat="46.69121" lon="-2.3209">
        <ele>21.29</ele>
        <time>2016-07-09T12:02:19Z</time>
      </trkpt>
      <trkpt lat="46.69115" lon="-2.32126">
        <ele>21.29</ele>
        <time>2016-07-09T12:02:49Z</time>
      </trkpt>
      <trkpt lat="46.69108" lon="-2.32152">
        <ele>23.69</ele>
        <time>2016-07-09T12:03:19Z</time>
      </trkpt>
      <trkpt lat="46.69107" lon="-2.32179">
        <ele>27.05</ele>
        <time>2016-07-09T12:03:49Z</time>
      </trkpt>
      <trkpt lat="46.69101" lon="-2.3219">
        <ele>28.02</ele>
        <time>2016-07-09T12:04:19Z</time>
      </trkpt>
      <trkpt lat="46.691" lon="-2.32193">
        <ele>28.02</ele>
        <time>2016-07-09T12:04:49Z</time>
      </trkpt>
      <trkpt lat="46.69101" lon="-2.32194">
        <ele>28.02</ele>
        <time>2016-07-09T12:05:19Z</time>
      </trkpt>
      <trkpt lat="46.691" lon="-2.32194">
        <ele>27.53</ele>
        <time>2016-07-09T12:05:49Z</time>
      </trkpt>
      <trkpt lat="46.691" lon="-2.32195">
        <ele>27.53</ele>
        <time>2016-07-09T12:06:19Z</time>
      </trkpt>
      <trkpt lat="46.691" lon="-2.32195">
        <ele>27.53</ele>
        <time>2016-07-09T12:06:49Z</time>
      </trkpt>
      <trkpt lat="46.69105" lon="-2.32205">
        <ele>28.02</ele>
        <time>2016-07-09T12:07:19Z</time>
      </trkpt>
      <trkpt lat="46.69104" lon="-2.32239">
        <ele>27.53</ele>
        <time>2016-07-09T12:07:49Z</time>
      </trkpt>
      <trkpt lat="46.69106" lon="-2.32282">
        <ele>28.5</ele>
        <time>2016-07-09T12:08:19Z</time>
      </trkpt>
      <trkpt lat="46.69106" lon="-2.32327">
        <ele>28.5</ele>
        <time>2016-07-09T12:08:49Z</time>
      </trkpt>
      <trkpt lat="46.69107" lon="-2.32339">
        <ele>24.65</ele>
        <time>2016-07-09T12:09:19Z</time>
      </trkpt>
      <trkpt lat="46.69111" lon="-2.32372">
        <ele>27.05</ele>
        <time>2016-07-09T12:09:49Z</time>
      </trkpt>
      <trkpt lat="46.69099" lon="-2.32412">
        <ele>27.05</ele>
        <time>2016-07-09T12:10:19Z</time>
      </trkpt>
      <trkpt lat="46.69087" lon="-2.32423">
        <ele>27.53</ele>
        <time>2016-07-09T12:10:49Z</time>
      </trkpt>
      <trkpt lat="46.69086" lon="-2.3242">
        <ele>27.05</ele>
        <time>2016-07-09T12:11:19Z</time>
      </trkpt>
      <trkpt lat="46.69084" lon="-2.32418">
        <ele>28.02</ele>
        <time>2016-07-09T12:11:49Z</time>
      </trkpt>
      <trkpt lat="46.69083" lon="-2.32421">
        <ele>27.53</ele>
        <time>2016-07-09T12:12:19Z</time>
      </trkpt>
      <trkpt lat="46.69076" lon="-2.32467">
        <ele>27.53</ele>
        <time>2016-07-09T12:12:49Z</time>
      </trkpt>
      <trkpt lat="46.6908" lon="-2.325">
        <ele>24.65</ele>
        <time>2016-07-09T12:13:19Z</time>
      </trkpt>
      <trkpt lat="46.69075" lon="-2.32515">
        <ele>21.77</ele>
        <time>2016-07-09T12:13:49Z</time>
      </trkpt>
      <trkpt lat="46.69059" lon="-2.32492">
        <ele>18.4</ele>
        <time>2016-07-09T12:14:19Z</time>
      </trkpt>
      <trkpt lat="46.6905" lon="-2.32482">
        <ele>14.56</ele>
        <time>2016-07-09T12:14:49Z</time>
      </trkpt>
      <trkpt lat="46.69049" lon="-2.32483">
        <ele>15.52</ele>
        <time>2016-07-09T12:15:19Z</time>
      </trkpt>
      <trkpt lat="46.69043" lon="-2.32497">
        <ele>13.6</ele>
        <time>2016-07-09T12:15:49Z</time>
      </trkpt>
      <trkpt lat="46.69029" lon="-2.32501">
        <ele>19.36</ele>
        <time>2016-07-09T12:16:19Z</time>
      </trkpt>
      <trkpt lat="46.69009" lon="-2.32491">
        <ele>22.73</ele>
        <time>2016-07-09T12:16:49Z</time>
      </trkpt>
      <trkpt lat="46.69004" lon="-2.3249">
        <ele>25.13</ele>
        <time>2016-07-09T12:17:19Z</time>
      </trkpt>
      <trkpt lat="46.69002" lon="-2.32495">
        <ele>25.13</ele>
        <time>2016-07-09T12:17:49Z</time>
      </trkpt>
      <trkpt lat="46.69002" lon="-2.32491">
        <ele>25.13</ele>
        <time>2016-07-09T12:18:19Z</time>
      </trkpt>
      <trkpt lat="46.68992" lon="-2.32502">
        <ele>27.05</ele>
        <time>2016-07-09T12:18:49Z</time>
      </trkpt>
      <trkpt lat="46.68965" lon="-2.32524">
        <ele>27.53</ele>
        <time>2016-07-09T12:19:19Z</time>
      </trkpt>
      <trkpt lat="46.68944" lon="-2.32557">
        <ele>28.02</ele>
        <time>2016-07-09T12:19:49Z</time>
      </trkpt>
      <trkpt lat="46.68941" lon="-2.32602">
        <ele>29.94</ele>
        <time>2016-07-09T12:20:19Z</time>
      </trkpt>
      <trkpt lat="46.68933" lon="-2.3265">
        <ele>31.38</ele>
        <time>2016-07-09T12:20:49Z</time>
      </trkpt>
      <trkpt lat="46.68902" lon="-2.32666">
        <ele>28.5</ele>
        <time>2016-07-09T12:21:19Z</time>
      </trkpt>
      <trkpt lat="46.68881" lon="-2.32682">
        <ele>30.42</ele>
        <time>2016-07-09T12:21:49Z</time>
      </trkpt>
      <trkpt lat="46.68863" lon="-2.32692">
        <ele>32.34</ele>
        <time>2016-07-09T12:22:19Z</time>
      </trkpt>
      <trkpt lat="46.68843" lon="-2.32716">
        <ele>30.9</ele>
        <time>2016-07-09T12:22:49Z</time>
      </trkpt>
      <trkpt lat="46.68844" lon="-2.32714">
        <ele>30.9</ele>
        <time>2016-07-09T12:23:19Z</time>
      </trkpt>
      <trkpt lat="46.68841" lon="-2.32715">
        <ele>30.42</ele>
        <time>2016-07-09T12:23:49Z</time>
      </trkpt>
      <trkpt lat="46.6884" lon="-2.32712">
        <ele>30.9</ele>
        <time>2016-07-09T12:24:19Z</time>
      </trkpt>
      <trkpt lat="46.6884" lon="-2.32722">
        <ele>30.9</ele>
        <time>2016-07-09T12:24:49Z</time>
      </trkpt>
      <trkpt lat="46.6881" lon="-2.32737">
        <ele>30.42</ele>
        <time>2016-07-09T12:25:19Z</time>
      </trkpt>
      <trkpt lat="46.68801" lon="-2.32776">
        <ele>29.94</ele>
        <time>2016-07-09T12:25:49Z</time>
      </trkpt>
      <trkpt lat="46.68776" lon="-2.32799">
        <ele>27.53</ele>
        <time>2016-07-09T12:26:19Z</time>
      </trkpt>
      <trkpt lat="46.68757" lon="-2.32841">
        <ele>26.09</ele>
        <time>2016-07-09T12:26:49Z</time>
      </trkpt>
      <trkpt lat="46.68751" lon="-2.32851">
        <ele>26.57</ele>
        <time>2016-07-09T12:27:19Z</time>
      </trkpt>
      <trkpt lat="46.68729" lon="-2.32898">
        <ele>27.05</ele>
        <time>2016-07-09T12:27:49Z</time>
      </trkpt>
      <trkpt lat="46.68707" lon="-2.3293">
        <ele>28.5</ele>
        <time>2016-07-09T12:28:19Z</time>
      </trkpt>
      <trkpt lat="46.68709" lon="-2.32947">
        <ele>28.5</ele>
        <time>2016-07-09T12:28:49Z</time>
      </trkpt>
      <trkpt lat="46.68715" lon="-2.32988">
        <ele>28.98</ele>
        <time>2016-07-09T12:29:19Z</time>
      </trkpt>
      <trkpt lat="46.68717" lon="-2.33021">
        <ele>28.5</ele>
        <time>2016-07-09T12:29:49Z</time>
      </trkpt>
      <trkpt lat="46.68722" lon="-2.33055">
        <ele>26.57</ele>
        <time>2016-07-09T12:30:19Z</time>
      </trkpt>
      <trkpt lat="46.68725" lon="-2.33078">
        <ele>24.17</ele>
        <time>2016-07-09T12:30:49Z</time>
      </trkpt>
      <trkpt lat="46.68707" lon="-2.33109">
        <ele>19.84</ele>
        <time>2016-07-09T12:31:19Z</time>
      </trkpt>
      <trkpt lat="46.68692" lon="-2.33144">
        <ele>22.25</ele>
        <time>2016-07-09T12:31:49Z</time>
      </trkpt>
      <trkpt lat="46.68682" lon="-2.3319">
        <ele>22.73</ele>
        <time>2016-07-09T12:32:19Z</time>
      </trkpt>
      <trkpt lat="46.68685" lon="-2.33219">
        <ele>24.17</ele>
        <time>2016-07-09T12:32:49Z</time>
      </trkpt>
      <trkpt lat="46.68685" lon="-2.3322">
        <ele>23.69</ele>
        <time>2016-07-09T12:33:19Z</time>
      </trkpt>
      <trkpt lat="46.68685" lon="-2.33215">
        <ele>23.69</ele>
        <time>2016-07-09T12:33:49Z</time>
      </trkpt>
      <trkpt lat="46.68684" lon="-2.33214">
        <ele>24.17</ele>
        <time>2016-07-09T12:34:19Z</time>
      </trkpt>
      <trkpt lat="46.68684" lon="-2.33218">
        <ele>22.73</ele>
        <time>2016-07-09T12:34:49Z</time>
      </trkpt>
      <trkpt lat="46.68688" lon="-2.33242">
        <ele>23.69</ele>
        <time>2016-07-09T12:35:19Z</time>
      </trkpt>
      <trkpt lat="46.68686" lon="-2.33237">
        <ele>23.21</ele>
        <time>2016-07-09T12:35:49Z</time>
      </trkpt>
      <trkpt lat="46.68682" lon="-2.33217">
        <ele>23.21</ele>
        <time>2016-07-09T12:36:19Z</time>
      </trkpt>
      <trkpt lat="46.68656" lon="-2.33229">
        <ele>20.81</ele>
        <time>2016-07-09T12:36:49Z</time>
      </trkpt>
      <trkpt lat="46.68635" lon="-2.33249">
        <ele>17.92</ele>
        <time>2016-07-09T12:37:19Z</time>
      </trkpt>
      <trkpt lat="46.68628" lon="-2.33272">
        <ele>16</ele>
        <time>2016-07-09T12:37:49Z</time>
      </trkpt>
      <trkpt lat="46.68607" lon="-2.33273">
        <ele>18.88</ele>
        <time>2016-07-09T12:38:19Z</time>
      </trkpt>
      <trkpt lat="46.68599" lon="-2.33274">
        <ele>18.88</ele>
        <time>2016-07-09T12:38:49Z</time>
      </trkpt>
      <trkpt lat="46.68595" lon="-2.33275">
        <ele>18.88</ele>
        <time>2016-07-09T12:39:19Z</time>
      </trkpt>
      <trkpt lat="46.68596" lon="-2.33271">
        <ele>18.88</ele>
        <time>2016-07-09T12:39:49Z</time>
      </trkpt>
      <trkpt lat="46.68598" lon="-2.33283">
        <ele>18.88</ele>
        <time>2016-07-09T12:40:19Z</time>
      </trkpt>
      <trkpt lat="46.68599" lon="-2.33279">
        <ele>18.88</ele>
        <time>2016-07-09T12:40:49Z</time>
      </trkpt>
      <trkpt lat="46.686" lon="-2.33277">
        <ele>18.88</ele>
        <time>2016-07-09T12:41:19Z</time>
      </trkpt>
      <trkpt lat="46.68608" lon="-2.33274">
        <ele>18.88</ele>
        <time>2016-07-09T12:41:49Z</time>
      </trkpt>
      <trkpt lat="46.6861" lon="-2.3328">
        <ele>17.92</ele>
        <time>2016-07-09T12:42:19Z</time>
      </trkpt>
      <trkpt lat="46.68608" lon="-2.33273">
        <ele>17.44</ele>
        <time>2016-07-09T12:42:49Z</time>
      </trkpt>
      <trkpt lat="46.68609" lon="-2.33273">
        <ele>19.36</ele>
        <time>2016-07-09T12:43:19Z</time>
      </trkpt>
      <trkpt lat="46.68625" lon="-2.33273">
        <ele>16.48</ele>
        <time>2016-07-09T12:43:49Z</time>
      </trkpt>
      <trkpt lat="46.68636" lon="-2.33251">
        <ele>16.48</ele>
        <time>2016-07-09T12:44:19Z</time>
      </trkpt>
      <trkpt lat="46.68641" lon="-2.33222">
        <ele>18.4</ele>
        <time>2016-07-09T12:44:49Z</time>
      </trkpt>
      <trkpt lat="46.68666" lon="-2.33217">
        <ele>20.81</ele>
        <time>2016-07-09T12:45:19Z</time>
      </trkpt>
      <trkpt lat="46.68692" lon="-2.33218">
        <ele>22.73</ele>
        <time>2016-07-09T12:45:49Z</time>
      </trkpt>
      <trkpt lat="46.6872" lon="-2.33199">
        <ele>22.73</ele>
        <time>2016-07-09T12:46:19Z</time>
      </trkpt>
      <trkpt lat="46.68752" lon="-2.33199">
        <ele>21.29</ele>
        <time>2016-07-09T12:46:49Z</time>
      </trkpt>
      <trkpt lat="46.68784" lon="-2.33189">
        <ele>19.84</ele>
        <time>2016-07-09T12:47:19Z</time>
      </trkpt>
      <trkpt lat="46.68806" lon="-2.3318">
        <ele>19.36</ele>
        <time>2016-07-09T12:47:49Z</time>
      </trkpt>
      <trkpt lat="46.68838" lon="-2.33168">
        <ele>17.92</ele>
        <time>2016-07-09T12:48:19Z</time>
      </trkpt>
      <trkpt lat="46.68859" lon="-2.33147">
        <ele>15.04</ele>
        <time>2016-07-09T12:48:49Z</time>
      </trkpt>
      <trkpt lat="46.68883" lon="-2.33171">
        <ele>15.52</ele>
        <time>2016-07-09T12:49:19Z</time>
      </trkpt>
      <trkpt lat="46.68904" lon="-2.33195">
        <ele>17.44</ele>
        <time>2016-07-09T12:49:49Z</time>
      </trkpt>
      <trkpt lat="46.68915" lon="-2.33195">
        <ele>17.92</ele>
        <time>2016-07-09T12:50:19Z</time>
      </trkpt>
      <trkpt lat="46.68916" lon="-2.3319">
        <ele>18.4</ele>
        <time>2016-07-09T12:50:49Z</time>
      </trkpt>
      <trkpt lat="46.68911" lon="-2.33167">
        <ele>19.36</ele>
        <time>2016-07-09T12:51:19Z</time>
      </trkpt>
      <trkpt lat="46.68913" lon="-2.33128">
        <ele>22.25</ele>
        <time>2016-07-09T12:51:49Z</time>
      </trkpt>
      <trkpt lat="46.6894" lon="-2.33111">
        <ele>24.17</ele>
        <time>2016-07-09T12:52:19Z</time>
      </trkpt>
      <trkpt lat="46.68965" lon="-2.33112">
        <ele>25.13</ele>
        <time>2016-07-09T12:52:49Z</time>
      </trkpt>
      <trkpt lat="46.68988" lon="-2.33096">
        <ele>28.02</ele>
        <time>2016-07-09T12:53:19Z</time>
      </trkpt>
      <trkpt lat="46.69012" lon="-2.33081">
        <ele>29.46</ele>
        <time>2016-07-09T12:53:49Z</time>
      </trkpt>
      <trkpt lat="46.69041" lon="-2.33076">
        <ele>30.42</ele>
        <time>2016-07-09T12:54:19Z</time>
      </trkpt>
      <trkpt lat="46.69072" lon="-2.33072">
        <ele>31.38</ele>
        <time>2016-07-09T12:54:49Z</time>
      </trkpt>
      <trkpt lat="46.69107" lon="-2.33065">
        <ele>31.86</ele>
        <time>2016-07-09T12:55:19Z</time>
      </trkpt>
      <trkpt lat="46.69142" lon="-2.33051">
        <ele>33.3</ele>
        <time>2016-07-09T12:55:49Z</time>
      </trkpt>
      <trkpt lat="46.69173" lon="-2.33041">
        <ele>33.3</ele>
        <time>2016-07-09T12:56:19Z</time>
      </trkpt>
      <trkpt lat="46.69208" lon="-2.33032">
        <ele>33.78</ele>
        <time>2016-07-09T12:56:49Z</time>
      </trkpt>
      <trkpt lat="46.69214" lon="-2.33031">
        <ele>33.3</ele>
        <time>2016-07-09T12:57:19Z</time>
      </trkpt>
      <trkpt lat="46.69215" lon="-2.33029">
        <ele>33.78</ele>
        <time>2016-07-09T12:57:49Z</time>
      </trkpt>
      <trkpt lat="46.69217" lon="-2.33027">
        <ele>33.78</ele>
        <time>2016-07-09T12:58:19Z</time>
      </trkpt>
      <trkpt lat="46.69219" lon="-2.33026">
        <ele>33.78</ele>
        <time>2016-07-09T12:58:49Z</time>
      </trkpt>
      <trkpt lat="46.69232" lon="-2.33021">
        <ele>33.78</ele>
        <time>2016-07-09T12:59:19Z</time>
      </trkpt>
      <trkpt lat="46.69261" lon="-2.33007">
        <ele>34.74</ele>
        <time>2016-07-09T12:59:49Z</time>
      </trkpt>
      <trkpt lat="46.69298" lon="-2.33001">
        <ele>35.23</ele>
        <time>2016-07-09T13:00:19Z</time>
      </trkpt>
      <trkpt lat="46.6933" lon="-2.32989">
        <ele>35.71</ele>
        <time>2016-07-09T13:00:49Z</time>
      </trkpt>
      <trkpt lat="46.69366" lon="-2.32983">
        <ele>35.23</ele>
        <time>2016-07-09T13:01:19Z</time>
      </trkpt>
      <trkpt lat="46.694" lon="-2.3298">
        <ele>35.71</ele>
        <time>2016-07-09T13:01:49Z</time>
      </trkpt>
      <trkpt lat="46.69411" lon="-2.32985">
        <ele>35.71</ele>
        <time>2016-07-09T13:02:19Z</time>
      </trkpt>
      <trkpt lat="46.69412" lon="-2.32986">
        <ele>35.71</ele>
        <time>2016-07-09T13:02:49Z</time>
      </trkpt>
      <trkpt lat="46.69444" lon="-2.32978">
        <ele>35.71</ele>
        <time>2016-07-09T13:03:19Z</time>
      </trkpt>
      <trkpt lat="46.69479" lon="-2.32964">
        <ele>34.74</ele>
        <time>2016-07-09T13:03:49Z</time>
      </trkpt>
      <trkpt lat="46.69509" lon="-2.32951">
        <ele>34.26</ele>
        <time>2016-07-09T13:04:19Z</time>
      </trkpt>
      <trkpt lat="46.69542" lon="-2.32944">
        <ele>32.82</ele>
        <time>2016-07-09T13:04:49Z</time>
      </trkpt>
      <trkpt lat="46.69576" lon="-2.32952">
        <ele>32.34</ele>
        <time>2016-07-09T13:05:19Z</time>
      </trkpt>
      <trkpt lat="46.69584" lon="-2.32953">
        <ele>31.86</ele>
        <time>2016-07-09T13:05:49Z</time>
      </trkpt>
      <trkpt lat="46.69594" lon="-2.32964">
        <ele>31.86</ele>
        <time>2016-07-09T13:06:19Z</time>
      </trkpt>
      <trkpt lat="46.69625" lon="-2.32992">
        <ele>31.86</ele>
        <time>2016-07-09T13:06:49Z</time>
      </trkpt>
      <trkpt lat="46.69658" lon="-2.33022">
        <ele>30.42</ele>
        <time>2016-07-09T13:07:19Z</time>
      </trkpt>
      <trkpt lat="46.69694" lon="-2.3304">
        <ele>30.42</ele>
        <time>2016-07-09T13:07:49Z</time>
      </trkpt>
      <trkpt lat="46.6973" lon="-2.33047">
        <ele>29.94</ele>
        <time>2016-07-09T13:08:19Z</time>
      </trkpt>
      <trkpt lat="46.6976" lon="-2.33058">
        <ele>29.46</ele>
        <time>2016-07-09T13:08:49Z</time>
      </trkpt>
      <trkpt lat="46.6979" lon="-2.33087">
        <ele>28.98</ele>
        <time>2016-07-09T13:09:19Z</time>
      </trkpt>
      <trkpt lat="46.69817" lon="-2.33117">
        <ele>28.5</ele>
        <time>2016-07-09T13:09:49Z</time>
      </trkpt>
      <trkpt lat="46.69846" lon="-2.33146">
        <ele>27.53</ele>
        <time>2016-07-09T13:10:19Z</time>
      </trkpt>
      <trkpt lat="46.69876" lon="-2.33174">
        <ele>27.05</ele>
        <time>2016-07-09T13:10:49Z</time>
      </trkpt>
      <trkpt lat="46.69907" lon="-2.33199">
        <ele>26.57</ele>
        <time>2016-07-09T13:11:19Z</time>
      </trkpt>
      <trkpt lat="46.69936" lon="-2.33218">
        <ele>26.09</ele>
        <time>2016-07-09T13:11:49Z</time>
      </trkpt>
      <trkpt lat="46.69948" lon="-2.33228">
        <ele>26.09</ele>
        <time>2016-07-09T13:12:19Z</time>
      </trkpt>
      <trkpt lat="46.69973" lon="-2.33235">
        <ele>25.61</ele>
        <time>2016-07-09T13:12:49Z</time>
      </trkpt>
      <trkpt lat="46.70004" lon="-2.33266">
        <ele>25.61</ele>
        <time>2016-07-09T13:13:19Z</time>
      </trkpt>
      <trkpt lat="46.70024" lon="-2.33301">
        <ele>25.61</ele>
        <time>2016-07-09T13:13:49Z</time>
      </trkpt>
      <trkpt lat="46.70051" lon="-2.33343">
        <ele>25.61</ele>
        <time>2016-07-09T13:14:19Z</time>
      </trkpt>
      <trkpt lat="46.70065" lon="-2.33344">
        <ele>25.61</ele>
        <time>2016-07-09T13:14:49Z</time>
      </trkpt>
      <trkpt lat="46.70096" lon="-2.3333">
        <ele>26.09</ele>
        <time>2016-07-09T13:15:19Z</time>
      </trkpt>
      <trkpt lat="46.70128" lon="-2.33311">
        <ele>26.57</ele>
        <time>2016-07-09T13:15:49Z</time>
      </trkpt>
      <trkpt lat="46.70164" lon="-2.33315">
        <ele>27.05</ele>
        <time>2016-07-09T13:16:19Z</time>
      </trkpt>
      <trkpt lat="46.70199" lon="-2.33322">
        <ele>27.53</ele>
        <time>2016-07-09T13:16:49Z</time>
      </trkpt>
      <trkpt lat="46.70234" lon="-2.33318">
        <ele>28.5</ele>
        <time>2016-07-09T13:17:19Z</time>
      </trkpt>
      <trkpt lat="46.70269" lon="-2.33299">
        <ele>28.5</ele>
        <time>2016-07-09T13:17:49Z</time>
      </trkpt>
      <trkpt lat="46.70302" lon="-2.33284">
        <ele>28.5</ele>
        <time>2016-07-09T13:18:19Z</time>
      </trkpt>
      <trkpt lat="46.70334" lon="-2.33268">
        <ele>28.98</ele>
        <time>2016-07-09T13:18:49Z</time>
      </trkpt>
      <trkpt lat="46.70358" lon="-2.33257">
        <ele>29.46</ele>
        <time>2016-07-09T13:19:19Z</time>
      </trkpt>
      <trkpt lat="46.70392" lon="-2.33239">
        <ele>29.94</ele>
        <time>2016-07-09T13:19:49Z</time>
      </trkpt>
      <trkpt lat="46.7042" lon="-2.3321">
        <ele>29.46</ele>
        <time>2016-07-09T13:20:19Z</time>
      </trkpt>
      <trkpt lat="46.70453" lon="-2.33201">
        <ele>29.46</ele>
        <time>2016-07-09T13:20:49Z</time>
      </trkpt>
      <trkpt lat="46.70485" lon="-2.33198">
        <ele>29.94</ele>
        <time>2016-07-09T13:21:19Z</time>
      </trkpt>
      <trkpt lat="46.70518" lon="-2.33204">
        <ele>30.42</ele>
        <time>2016-07-09T13:21:49Z</time>
      </trkpt>
      <trkpt lat="46.70533" lon="-2.33193">
        <ele>30.42</ele>
        <time>2016-07-09T13:22:19Z</time>
      </trkpt>
      <trkpt lat="46.70532" lon="-2.33192">
        <ele>30.42</ele>
        <time>2016-07-09T13:22:49Z</time>
      </trkpt>
      <trkpt lat="46.70555" lon="-2.33195">
        <ele>30.42</ele>
        <time>2016-07-09T13:23:19Z</time>
      </trkpt>
      <trkpt lat="46.70584" lon="-2.33209">
        <ele>30.9</ele>
        <time>2016-07-09T13:23:49Z</time>
      </trkpt>
      <trkpt lat="46.70607" lon="-2.33191">
        <ele>30.42</ele>
        <time>2016-07-09T13:24:19Z</time>
      </trkpt>
      <trkpt lat="46.70634" lon="-2.33193">
        <ele>30.9</ele>
        <time>2016-07-09T13:24:49Z</time>
      </trkpt>
      <trkpt lat="46.70656" lon="-2.332">
        <ele>30.9</ele>
        <time>2016-07-09T13:25:19Z</time>
      </trkpt>
      <trkpt lat="46.70683" lon="-2.33222">
        <ele>30.9</ele>
        <time>2016-07-09T13:25:49Z</time>
      </trkpt>
      <trkpt lat="46.70688" lon="-2.33219">
        <ele>29.46</ele>
        <time>2016-07-09T13:26:19Z</time>
      </trkpt>
      <trkpt lat="46.70691" lon="-2.33219">
        <ele>30.9</ele>
        <time>2016-07-09T13:26:49Z</time>
      </trkpt>
      <trkpt lat="46.70702" lon="-2.3322">
        <ele>30.42</ele>
        <time>2016-07-09T13:27:19Z</time>
      </trkpt>
      <trkpt lat="46.70703" lon="-2.33222">
        <ele>29.94</ele>
        <time>2016-07-09T13:27:49Z</time>
      </trkpt>
      <trkpt lat="46.7071" lon="-2.33222">
        <ele>29.46</ele>
        <time>2016-07-09T13:28:19Z</time>
      </trkpt>
      <trkpt lat="46.70686" lon="-2.33221">
        <ele>31.38</ele>
        <time>2016-07-09T13:28:49Z</time>
      </trkpt>
      <trkpt lat="46.70684" lon="-2.33229">
        <ele>31.38</ele>
        <time>2016-07-09T13:29:19Z</time>
      </trkpt>
      <trkpt lat="46.70679" lon="-2.33232">
        <ele>31.86</ele>
        <time>2016-07-09T13:29:49Z</time>
      </trkpt>
      <trkpt lat="46.70681" lon="-2.33227">
        <ele>31.38</ele>
        <time>2016-07-09T13:30:19Z</time>
      </trkpt>
      <trkpt lat="46.70684" lon="-2.33225">
        <ele>31.86</ele>
        <time>2016-07-09T13:30:49Z</time>
      </trkpt>
      <trkpt lat="46.7069" lon="-2.33221">
        <ele>31.86</ele>
        <time>2016-07-09T13:31:19Z</time>
      </trkpt>
      <trkpt lat="46.70688" lon="-2.33226">
        <ele>30.9</ele>
        <time>2016-07-09T13:31:49Z</time>
      </trkpt>
      <trkpt lat="46.70689" lon="-2.33227">
        <ele>31.38</ele>
        <time>2016-07-09T13:32:19Z</time>
      </trkpt>
      <trkpt lat="46.70692" lon="-2.33222">
        <ele>31.38</ele>
        <time>2016-07-09T13:32:49Z</time>
      </trkpt>
      <trkpt lat="46.70689" lon="-2.33229">
        <ele>31.38</ele>
        <time>2016-07-09T13:33:19Z</time>
      </trkpt>
      <trkpt lat="46.70689" lon="-2.33228">
        <ele>31.38</ele>
        <time>2016-07-09T13:33:49Z</time>
      </trkpt>
      <trkpt lat="46.70688" lon="-2.33229">
        <ele>31.38</ele>
        <time>2016-07-09T13:34:19Z</time>
      </trkpt>
      <trkpt lat="46.70687" lon="-2.33227">
        <ele>31.86</ele>
        <time>2016-07-09T13:34:49Z</time>
      </trkpt>
      <trkpt lat="46.70687" lon="-2.33225">
        <ele>31.38</ele>
        <time>2016-07-09T13:35:19Z</time>
      </trkpt>
      <trkpt lat="46.70684" lon="-2.33227">
        <ele>31.86</ele>
        <time>2016-07-09T13:35:49Z</time>
      </trkpt>
      <trkpt lat="46.70683" lon="-2.33228">
        <ele>31.38</ele>
        <time>2016-07-09T13:36:19Z</time>
      </trkpt>
      <trkpt lat="46.70686" lon="-2.33226">
        <ele>31.38</ele>
        <time>2016-07-09T13:36:49Z</time>
      </trkpt>
      <trkpt lat="46.70688" lon="-2.33229">
        <ele>31.86</ele>
        <time>2016-07-09T13:37:19Z</time>
      </trkpt>
      <trkpt lat="46.70689" lon="-2.3323">
        <ele>31.38</ele>
        <time>2016-07-09T13:37:49Z</time>
      </trkpt>
      <trkpt lat="46.70689" lon="-2.3323">
        <ele>31.38</ele>
        <time>2016-07-09T13:38:19Z</time>
      </trkpt>
      <trkpt lat="46.70688" lon="-2.3323">
        <ele>31.38</ele>
        <time>2016-07-09T13:38:49Z</time>
      </trkpt>
      <trkpt lat="46.7069" lon="-2.33227">
        <ele>31.38</ele>
        <time>2016-07-09T13:39:19Z</time>
      </trkpt>
      <trkpt lat="46.70687" lon="-2.33228">
        <ele>31.38</ele>
        <time>2016-07-09T13:39:49Z</time>
      </trkpt>
      <trkpt lat="46.70688" lon="-2.33228">
        <ele>31.38</ele>
        <time>2016-07-09T13:40:19Z</time>
      </trkpt>
      <trkpt lat="46.70688" lon="-2.33228">
        <ele>31.38</ele>
        <time>2016-07-09T13:40:49Z</time>
      </trkpt>
      <trkpt lat="46.70687" lon="-2.33229">
        <ele>31.38</ele>
        <time>2016-07-09T13:41:19Z</time>
      </trkpt>
      <trkpt lat="46.70687" lon="-2.33227">
        <ele>31.86</ele>
        <time>2016-07-09T13:41:49Z</time>
      </trkpt>
      <trkpt lat="46.70687" lon="-2.33229">
        <ele>31.86</ele>
        <time>2016-07-09T13:42:19Z</time>
      </trkpt>
      <trkpt lat="46.70688" lon="-2.33224">
        <ele>31.86</ele>
        <time>2016-07-09T13:42:49Z</time>
      </trkpt>
      <trkpt lat="46.70687" lon="-2.33226">
        <ele>32.34</ele>
        <time>2016-07-09T13:43:19Z</time>
      </trkpt>
      <trkpt lat="46.70687" lon="-2.33229">
        <ele>32.34</ele>
        <time>2016-07-09T13:43:49Z</time>
      </trkpt>
      <trkpt lat="46.70688" lon="-2.33231">
        <ele>32.82</ele>
        <time>2016-07-09T13:44:19Z</time>
      </trkpt>
      <trkpt lat="46.70684" lon="-2.33231">
        <ele>32.34</ele>
        <time>2016-07-09T13:44:49Z</time>
      </trkpt>
      <trkpt lat="46.70683" lon="-2.33232">
        <ele>32.82</ele>
        <time>2016-07-09T13:45:19Z</time>
      </trkpt>
      <trkpt lat="46.70686" lon="-2.33233">
        <ele>32.34</ele>
        <time>2016-07-09T13:45:49Z</time>
      </trkpt>
      <trkpt lat="46.70684" lon="-2.33231">
        <ele>32.34</ele>
        <time>2016-07-09T13:46:19Z</time>
      </trkpt>
      <trkpt lat="46.70686" lon="-2.3323">
        <ele>32.82</ele>
        <time>2016-07-09T13:46:49Z</time>
      </trkpt>
      <trkpt lat="46.70688" lon="-2.33229">
        <ele>32.82</ele>
        <time>2016-07-09T13:47:19Z</time>
      </trkpt>
      <trkpt lat="46.70685" lon="-2.33229">
        <ele>32.34</ele>
        <time>2016-07-09T13:47:49Z</time>
      </trkpt>
      <trkpt lat="46.70688" lon="-2.33229">
        <ele>32.82</ele>
        <time>2016-07-09T13:48:19Z</time>
      </trkpt>
      <trkpt lat="46.70691" lon="-2.3323">
        <ele>32.82</ele>
        <time>2016-07-09T13:48:49Z</time>
      </trkpt>
      <trkpt lat="46.70691" lon="-2.33229">
        <ele>32.82</ele>
        <time>2016-07-09T13:49:19Z</time>
      </trkpt>
      <trkpt lat="46.70692" lon="-2.33227">
        <ele>32.82</ele>
        <time>2016-07-09T13:49:49Z</time>
      </trkpt>
      <trkpt lat="46.70689" lon="-2.33227">
        <ele>32.82</ele>
        <time>2016-07-09T13:50:19Z</time>
      </trkpt>
      <trkpt lat="46.7069" lon="-2.33229">
        <ele>33.3</ele>
        <time>2016-07-09T13:50:49Z</time>
      </trkpt>
      <trkpt lat="46.70689" lon="-2.33227">
        <ele>33.3</ele>
        <time>2016-07-09T13:51:19Z</time>
      </trkpt>
      <trkpt lat="46.70687" lon="-2.33229">
        <ele>33.3</ele>
        <time>2016-07-09T13:51:49Z</time>
      </trkpt>
      <trkpt lat="46.70686" lon="-2.33228">
        <ele>33.78</ele>
        <time>2016-07-09T13:52:19Z</time>
      </trkpt>
      <trkpt lat="46.70686" lon="-2.33229">
        <ele>33.3</ele>
        <time>2016-07-09T13:52:49Z</time>
      </trkpt>
      <trkpt lat="46.70688" lon="-2.33228">
        <ele>32.82</ele>
        <time>2016-07-09T13:53:19Z</time>
      </trkpt>
      <trkpt lat="46.70688" lon="-2.33228">
        <ele>33.3</ele>
        <time>2016-07-09T13:53:49Z</time>
      </trkpt>
      <trkpt lat="46.70687" lon="-2.33229">
        <ele>33.78</ele>
        <time>2016-07-09T13:54:19Z</time>
      </trkpt>
      <trkpt lat="46.70688" lon="-2.33228">
        <ele>33.78</ele>
        <time>2016-07-09T13:54:49Z</time>
      </trkpt>
      <trkpt lat="46.70692" lon="-2.33227">
        <ele>33.3</ele>
        <time>2016-07-09T13:55:19Z</time>
      </trkpt>
      <trkpt lat="46.70689" lon="-2.33223">
        <ele>32.82</ele>
        <time>2016-07-09T13:55:49Z</time>
      </trkpt>
      <trkpt lat="46.70707" lon="-2.33228">
        <ele>32.34</ele>
        <time>2016-07-09T13:56:19Z</time>
      </trkpt>
      <trkpt lat="46.70727" lon="-2.33247">
        <ele>30.9</ele>
        <time>2016-07-09T13:56:49Z</time>
      </trkpt>
      <trkpt lat="46.70739" lon="-2.33257">
        <ele>30.42</ele>
        <time>2016-07-09T13:57:19Z</time>
      </trkpt>
      <trkpt lat="46.7074" lon="-2.33259">
        <ele>30.9</ele>
        <time>2016-07-09T13:57:49Z</time>
      </trkpt>
      <trkpt lat="46.70744" lon="-2.33267">
        <ele>29.46</ele>
        <time>2016-07-09T13:58:19Z</time>
      </trkpt>
      <trkpt lat="46.70768" lon="-2.333">
        <ele>29.46</ele>
        <time>2016-07-09T13:58:49Z</time>
      </trkpt>
      <trkpt lat="46.70786" lon="-2.33314">
        <ele>28.02</ele>
        <time>2016-07-09T13:59:19Z</time>
      </trkpt>
      <trkpt lat="46.70798" lon="-2.33316">
        <ele>28.02</ele>
        <time>2016-07-09T13:59:49Z</time>
      </trkpt>
      <trkpt lat="46.70809" lon="-2.3333">
        <ele>27.05</ele>
        <time>2016-07-09T14:00:19Z</time>
      </trkpt>
      <trkpt lat="46.70831" lon="-2.33348">
        <ele>25.13</ele>
        <time>2016-07-09T14:00:49Z</time>
      </trkpt>
      <trkpt lat="46.70863" lon="-2.33378">
        <ele>24.65</ele>
        <time>2016-07-09T14:01:19Z</time>
      </trkpt>
      <trkpt lat="46.70892" lon="-2.33411">
        <ele>24.65</ele>
        <time>2016-07-09T14:01:49Z</time>
      </trkpt>
      <trkpt lat="46.70925" lon="-2.3342">
        <ele>24.65</ele>
        <time>2016-07-09T14:02:19Z</time>
      </trkpt>
      <trkpt lat="46.70958" lon="-2.33424">
        <ele>25.61</ele>
        <time>2016-07-09T14:02:49Z</time>
      </trkpt>
      <trkpt lat="46.70982" lon="-2.33429">
        <ele>27.05</ele>
        <time>2016-07-09T14:03:19Z</time>
      </trkpt>
      <trkpt lat="46.71004" lon="-2.33447">
        <ele>27.53</ele>
        <time>2016-07-09T14:03:49Z</time>
      </trkpt>
      <trkpt lat="46.7104" lon="-2.33466">
        <ele>27.53</ele>
        <time>2016-07-09T14:04:19Z</time>
      </trkpt>
      <trkpt lat="46.71072" lon="-2.33481">
        <ele>26.57</ele>
        <time>2016-07-09T14:04:49Z</time>
      </trkpt>
      <trkpt lat="46.71094" lon="-2.33489">
        <ele>26.09</ele>
        <time>2016-07-09T14:05:19Z</time>
      </trkpt>
      <trkpt lat="46.71127" lon="-2.33507">
        <ele>25.61</ele>
        <time>2016-07-09T14:05:49Z</time>
      </trkpt>
      <trkpt lat="46.71164" lon="-2.33523">
        <ele>25.61</ele>
        <time>2016-07-09T14:06:19Z</time>
      </trkpt>
      <trkpt lat="46.712" lon="-2.33539">
        <ele>24.65</ele>
        <time>2016-07-09T14:06:49Z</time>
      </trkpt>
      <trkpt lat="46.71232" lon="-2.33547">
        <ele>25.13</ele>
        <time>2016-07-09T14:07:19Z</time>
      </trkpt>
      <trkpt lat="46.71267" lon="-2.3355">
        <ele>25.13</ele>
        <time>2016-07-09T14:07:49Z</time>
      </trkpt>
      <trkpt lat="46.71291" lon="-2.33559">
        <ele>24.65</ele>
        <time>2016-07-09T14:08:19Z</time>
      </trkpt>
      <trkpt lat="46.7132" lon="-2.33575">
        <ele>23.69</ele>
        <time>2016-07-09T14:08:49Z</time>
      </trkpt>
      <trkpt lat="46.7134" lon="-2.3358">
        <ele>23.21</ele>
        <time>2016-07-09T14:09:19Z</time>
      </trkpt>
      <trkpt lat="46.71379" lon="-2.33596">
        <ele>22.73</ele>
        <time>2016-07-09T14:09:49Z</time>
      </trkpt>
      <trkpt lat="46.71414" lon="-2.33612">
        <ele>21.29</ele>
        <time>2016-07-09T14:10:19Z</time>
      </trkpt>
      <trkpt lat="46.71445" lon="-2.33627">
        <ele>22.25</ele>
        <time>2016-07-09T14:10:49Z</time>
      </trkpt>
      <trkpt lat="46.71472" lon="-2.33639">
        <ele>22.25</ele>
        <time>2016-07-09T14:11:19Z</time>
      </trkpt>
      <trkpt lat="46.71507" lon="-2.33665">
        <ele>22.25</ele>
        <time>2016-07-09T14:11:49Z</time>
      </trkpt>
      <trkpt lat="46.71541" lon="-2.33689">
        <ele>20.81</ele>
        <time>2016-07-09T14:12:19Z</time>
      </trkpt>
      <trkpt lat="46.71576" lon="-2.33712">
        <ele>19.36</ele>
        <time>2016-07-09T14:12:49Z</time>
      </trkpt>
      <trkpt lat="46.71602" lon="-2.33733">
        <ele>18.88</ele>
        <time>2016-07-09T14:13:19Z</time>
      </trkpt>
      <trkpt lat="46.71629" lon="-2.33759">
        <ele>17.44</ele>
        <time>2016-07-09T14:13:49Z</time>
      </trkpt>
      <trkpt lat="46.71656" lon="-2.33785">
        <ele>15.52</ele>
        <time>2016-07-09T14:14:19Z</time>
      </trkpt>
      <trkpt lat="46.71686" lon="-2.33809">
        <ele>14.56</ele>
        <time>2016-07-09T14:14:49Z</time>
      </trkpt>
      <trkpt lat="46.71712" lon="-2.33828">
        <ele>13.6</ele>
        <time>2016-07-09T14:15:19Z</time>
      </trkpt>
      <trkpt lat="46.71738" lon="-2.33851">
        <ele>14.08</ele>
        <time>2016-07-09T14:15:49Z</time>
      </trkpt>
      <trkpt lat="46.71763" lon="-2.33867">
        <ele>14.08</ele>
        <time>2016-07-09T14:16:19Z</time>
      </trkpt>
      <trkpt lat="46.71784" lon="-2.33896">
        <ele>13.12</ele>
        <time>2016-07-09T14:16:49Z</time>
      </trkpt>
      <trkpt lat="46.71803" lon="-2.33922">
        <ele>12.63</ele>
        <time>2016-07-09T14:17:19Z</time>
      </trkpt>
      <trkpt lat="46.71816" lon="-2.33894">
        <ele>13.12</ele>
        <time>2016-07-09T14:17:49Z</time>
      </trkpt>
      <trkpt lat="46.71842" lon="-2.33864">
        <ele>12.63</ele>
        <time>2016-07-09T14:18:19Z</time>
      </trkpt>
      <trkpt lat="46.71873" lon="-2.33838">
        <ele>11.67</ele>
        <time>2016-07-09T14:18:49Z</time>
      </trkpt>
      <trkpt lat="46.71884" lon="-2.33856">
        <ele>11.19</ele>
        <time>2016-07-09T14:19:19Z</time>
      </trkpt>
      <trkpt lat="46.71891" lon="-2.33907">
        <ele>11.19</ele>
        <time>2016-07-09T14:19:49Z</time>
      </trkpt>
      <trkpt lat="46.71903" lon="-2.33957">
        <ele>10.71</ele>
        <time>2016-07-09T14:20:19Z</time>
      </trkpt>
      <trkpt lat="46.71931" lon="-2.33969">
        <ele>8.79</ele>
        <time>2016-07-09T14:20:49Z</time>
      </trkpt>
      <trkpt lat="46.7196" lon="-2.33981">
        <ele>6.87</ele>
        <time>2016-07-09T14:21:19Z</time>
      </trkpt>
      <trkpt lat="46.71981" lon="-2.34017">
        <ele>6.87</ele>
        <time>2016-07-09T14:21:49Z</time>
      </trkpt>
      <trkpt lat="46.72011" lon="-2.34045">
        <ele>6.39</ele>
        <time>2016-07-09T14:22:19Z</time>
      </trkpt>
      <trkpt lat="46.72037" lon="-2.34073">
        <ele>5.91</ele>
        <time>2016-07-09T14:22:49Z</time>
      </trkpt>
      <trkpt lat="46.72062" lon="-2.34085">
        <ele>7.83</ele>
        <time>2016-07-09T14:23:19Z</time>
      </trkpt>
      <trkpt lat="46.72096" lon="-2.34072">
        <ele>9.27</ele>
        <time>2016-07-09T14:23:49Z</time>
      </trkpt>
      <trkpt lat="46.72125" lon="-2.34092">
        <ele>9.27</ele>
        <time>2016-07-09T14:24:19Z</time>
      </trkpt>
      <trkpt lat="46.72157" lon="-2.34109">
        <ele>9.75</ele>
        <time>2016-07-09T14:24:49Z</time>
      </trkpt>
      <trkpt lat="46.72175" lon="-2.34147">
        <ele>9.75</ele>
        <time>2016-07-09T14:25:19Z</time>
      </trkpt>
      <trkpt lat="46.72191" lon="-2.34186">
        <ele>9.27</ele>
        <time>2016-07-09T14:25:49Z</time>
      </trkpt>
      <trkpt lat="46.72214" lon="-2.34226">
        <ele>9.27</ele>
        <time>2016-07-09T14:26:19Z</time>
      </trkpt>
      <trkpt lat="46.72242" lon="-2.34245">
        <ele>10.23</ele>
        <time>2016-07-09T14:26:49Z</time>
      </trkpt>
      <trkpt lat="46.72236" lon="-2.34258">
        <ele>10.23</ele>
        <time>2016-07-09T14:27:19Z</time>
      </trkpt>
      <trkpt lat="46.72235" lon="-2.34263">
        <ele>9.75</ele>
        <time>2016-07-09T14:27:49Z</time>
      </trkpt>
    </trkseg>
  </trk>
</gpx>